<?xml version="1.0" encoding="UTF-8" standalone="no" ?>
<gpx xmlns="http://www.topografix.com/GPX/1/1" xmlns:xsi="http://www.w3.org/2001/XMLSchema-instance" xsi:schemaLocation="http://www.topografix.com/GPX/1/1 http://www.topografix.com/GPX/1/1/gpx.xsd" version="1.1" creator="VisuGPX - https://www.visugpx.com">
  <metadata>
    <name>Aqueduc de Roquefavour</name>
    <desc><![CDATA[joli circuit sur les hauteurs de Roquefavour, facile d'accès, beau point de vue sur l'ouvrage et le vallon.]]></desc>
  </metadata>
  <trk>
    <name><![CDATA[2018-04-16 15:35:28]]></name>
    <trkseg>
      <trkpt lat="43.5347" lon="5.29905">
        <ele>241.57</ele>
        <time>2018-04-16T08:00:11Z</time>
      </trkpt>
      <trkpt lat="43.5347" lon="5.29904">
        <ele>241.24</ele>
        <time>2018-04-16T08:00:45Z</time>
      </trkpt>
      <trkpt lat="43.53472" lon="5.29905">
        <ele>241.39</ele>
        <time>2018-04-16T08:01:13Z</time>
      </trkpt>
      <trkpt lat="43.53471" lon="5.29906">
        <ele>241.26</ele>
        <time>2018-04-16T08:01:36Z</time>
      </trkpt>
      <trkpt lat="43.53472" lon="5.29908">
        <ele>241.59</ele>
        <time>2018-04-16T08:02:06Z</time>
      </trkpt>
      <trkpt lat="43.53472" lon="5.29909">
        <ele>241.44</ele>
        <time>2018-04-16T08:02:32Z</time>
      </trkpt>
      <trkpt lat="43.53472" lon="5.29908">
        <ele>241.75</ele>
        <time>2018-04-16T08:02:47Z</time>
      </trkpt>
      <trkpt lat="43.53469" lon="5.29905">
        <ele>241.63</ele>
        <time>2018-04-16T08:03:14Z</time>
      </trkpt>
      <trkpt lat="43.5347" lon="5.29906">
        <ele>241.81</ele>
        <time>2018-04-16T08:03:36Z</time>
      </trkpt>
      <trkpt lat="43.5347" lon="5.29909">
        <ele>241.84</ele>
        <time>2018-04-16T08:04:00Z</time>
      </trkpt>
      <trkpt lat="43.5347" lon="5.29916">
        <ele>241.49</ele>
        <time>2018-04-16T08:04:19Z</time>
      </trkpt>
      <trkpt lat="43.53469" lon="5.29918">
        <ele>241.83</ele>
        <time>2018-04-16T08:04:39Z</time>
      </trkpt>
      <trkpt lat="43.53461" lon="5.29923">
        <ele>241.92</ele>
        <time>2018-04-16T08:05:05Z</time>
      </trkpt>
      <trkpt lat="43.53463" lon="5.29923">
        <ele>242.29</ele>
        <time>2018-04-16T08:05:21Z</time>
      </trkpt>
      <trkpt lat="43.53467" lon="5.29921">
        <ele>242.42</ele>
        <time>2018-04-16T08:05:40Z</time>
      </trkpt>
      <trkpt lat="43.53465" lon="5.29923">
        <ele>242.13</ele>
        <time>2018-04-16T08:06:04Z</time>
      </trkpt>
      <trkpt lat="43.53454" lon="5.29922">
        <ele>242.4</ele>
        <time>2018-04-16T08:06:16Z</time>
      </trkpt>
      <trkpt lat="43.53438" lon="5.29929">
        <ele>242.24</ele>
        <time>2018-04-16T08:06:35Z</time>
      </trkpt>
      <trkpt lat="43.53424" lon="5.29937">
        <ele>241.94</ele>
        <time>2018-04-16T08:06:55Z</time>
      </trkpt>
      <trkpt lat="43.53417" lon="5.29941">
        <ele>242.03</ele>
        <time>2018-04-16T08:07:16Z</time>
      </trkpt>
      <trkpt lat="43.53405" lon="5.29953">
        <ele>241.92</ele>
        <time>2018-04-16T08:07:43Z</time>
      </trkpt>
      <trkpt lat="43.53385" lon="5.29966">
        <ele>242.41</ele>
        <time>2018-04-16T08:08:10Z</time>
      </trkpt>
      <trkpt lat="43.53364" lon="5.29989">
        <ele>242.25</ele>
        <time>2018-04-16T08:08:42Z</time>
      </trkpt>
      <trkpt lat="43.53343" lon="5.30011">
        <ele>242.32</ele>
        <time>2018-04-16T08:09:08Z</time>
      </trkpt>
      <trkpt lat="43.53325" lon="5.30027">
        <ele>241.36</ele>
        <time>2018-04-16T08:09:28Z</time>
      </trkpt>
      <trkpt lat="43.5331" lon="5.30038">
        <ele>240.8</ele>
        <time>2018-04-16T08:09:44Z</time>
      </trkpt>
      <trkpt lat="43.53297" lon="5.3005">
        <ele>239.9</ele>
        <time>2018-04-16T08:10:01Z</time>
      </trkpt>
      <trkpt lat="43.53279" lon="5.30058">
        <ele>238.08</ele>
        <time>2018-04-16T08:10:21Z</time>
      </trkpt>
      <trkpt lat="43.53262" lon="5.30062">
        <ele>236.4</ele>
        <time>2018-04-16T08:10:40Z</time>
      </trkpt>
      <trkpt lat="43.53246" lon="5.30071">
        <ele>233.53</ele>
        <time>2018-04-16T08:10:59Z</time>
      </trkpt>
      <trkpt lat="43.5322" lon="5.30085">
        <ele>230.76</ele>
        <time>2018-04-16T08:11:27Z</time>
      </trkpt>
      <trkpt lat="43.53206" lon="5.30094">
        <ele>231.97</ele>
        <time>2018-04-16T08:11:43Z</time>
      </trkpt>
      <trkpt lat="43.53199" lon="5.30099">
        <ele>232.98</ele>
        <time>2018-04-16T08:12:01Z</time>
      </trkpt>
      <trkpt lat="43.53188" lon="5.30104">
        <ele>234.06</ele>
        <time>2018-04-16T08:12:19Z</time>
      </trkpt>
      <trkpt lat="43.53169" lon="5.30111">
        <ele>235.47</ele>
        <time>2018-04-16T08:12:37Z</time>
      </trkpt>
      <trkpt lat="43.53154" lon="5.30117">
        <ele>237.48</ele>
        <time>2018-04-16T08:12:52Z</time>
      </trkpt>
      <trkpt lat="43.53138" lon="5.30123">
        <ele>239.04</ele>
        <time>2018-04-16T08:13:08Z</time>
      </trkpt>
      <trkpt lat="43.53117" lon="5.30133">
        <ele>240.15</ele>
        <time>2018-04-16T08:13:28Z</time>
      </trkpt>
      <trkpt lat="43.53101" lon="5.3014">
        <ele>240.73</ele>
        <time>2018-04-16T08:13:43Z</time>
      </trkpt>
      <trkpt lat="43.53084" lon="5.30147">
        <ele>240.74</ele>
        <time>2018-04-16T08:13:59Z</time>
      </trkpt>
      <trkpt lat="43.53069" lon="5.30152">
        <ele>240.72</ele>
        <time>2018-04-16T08:14:13Z</time>
      </trkpt>
      <trkpt lat="43.53052" lon="5.30161">
        <ele>240.77</ele>
        <time>2018-04-16T08:14:29Z</time>
      </trkpt>
      <trkpt lat="43.5305" lon="5.30162">
        <ele>241.06</ele>
        <time>2018-04-16T08:14:39Z</time>
      </trkpt>
      <trkpt lat="43.5305" lon="5.30162">
        <ele>240.99</ele>
        <time>2018-04-16T08:15:01Z</time>
      </trkpt>
      <trkpt lat="43.53055" lon="5.30159">
        <ele>240.99</ele>
        <time>2018-04-16T08:15:24Z</time>
      </trkpt>
      <trkpt lat="43.53061" lon="5.30157">
        <ele>241.02</ele>
        <time>2018-04-16T08:15:29Z</time>
      </trkpt>
      <trkpt lat="43.53076" lon="5.3015">
        <ele>240.92</ele>
        <time>2018-04-16T08:15:46Z</time>
      </trkpt>
      <trkpt lat="43.53082" lon="5.30147">
        <ele>241.27</ele>
        <time>2018-04-16T08:16:14Z</time>
      </trkpt>
      <trkpt lat="43.5309" lon="5.30143">
        <ele>241.27</ele>
        <time>2018-04-16T08:16:31Z</time>
      </trkpt>
      <trkpt lat="43.53092" lon="5.30142">
        <ele>241.18</ele>
        <time>2018-04-16T08:16:33Z</time>
      </trkpt>
      <trkpt lat="43.53095" lon="5.30141">
        <ele>241.17</ele>
        <time>2018-04-16T08:16:35Z</time>
      </trkpt>
      <trkpt lat="43.53113" lon="5.30133">
        <ele>241.37</ele>
        <time>2018-04-16T08:16:53Z</time>
      </trkpt>
      <trkpt lat="43.53132" lon="5.30126">
        <ele>241.03</ele>
        <time>2018-04-16T08:17:11Z</time>
      </trkpt>
      <trkpt lat="43.53151" lon="5.30119">
        <ele>240.17</ele>
        <time>2018-04-16T08:17:28Z</time>
      </trkpt>
      <trkpt lat="43.53165" lon="5.30112">
        <ele>239.04</ele>
        <time>2018-04-16T08:17:44Z</time>
      </trkpt>
      <trkpt lat="43.53186" lon="5.30104">
        <ele>236.73</ele>
        <time>2018-04-16T08:18:03Z</time>
      </trkpt>
      <trkpt lat="43.532" lon="5.30102">
        <ele>235.56</ele>
        <time>2018-04-16T08:18:19Z</time>
      </trkpt>
      <trkpt lat="43.53198" lon="5.30116">
        <ele>233.89</ele>
        <time>2018-04-16T08:18:36Z</time>
      </trkpt>
      <trkpt lat="43.5319" lon="5.30136">
        <ele>232.92</ele>
        <time>2018-04-16T08:18:54Z</time>
      </trkpt>
      <trkpt lat="43.53186" lon="5.30145">
        <ele>232.78</ele>
        <time>2018-04-16T08:19:03Z</time>
      </trkpt>
      <trkpt lat="43.53177" lon="5.30174">
        <ele>232.05</ele>
        <time>2018-04-16T08:19:21Z</time>
      </trkpt>
      <trkpt lat="43.5317" lon="5.30206">
        <ele>231.2</ele>
        <time>2018-04-16T08:19:41Z</time>
      </trkpt>
      <trkpt lat="43.53161" lon="5.30234">
        <ele>230.1</ele>
        <time>2018-04-16T08:20:01Z</time>
      </trkpt>
      <trkpt lat="43.53153" lon="5.30257">
        <ele>228.78</ele>
        <time>2018-04-16T08:20:19Z</time>
      </trkpt>
      <trkpt lat="43.53146" lon="5.30279">
        <ele>226.41</ele>
        <time>2018-04-16T08:20:37Z</time>
      </trkpt>
      <trkpt lat="43.53139" lon="5.303">
        <ele>224.55</ele>
        <time>2018-04-16T08:20:53Z</time>
      </trkpt>
      <trkpt lat="43.53135" lon="5.30307">
        <ele>223.91</ele>
        <time>2018-04-16T08:21:01Z</time>
      </trkpt>
      <trkpt lat="43.53132" lon="5.30311">
        <ele>223.47</ele>
        <time>2018-04-16T08:21:05Z</time>
      </trkpt>
      <trkpt lat="43.5312" lon="5.30336">
        <ele>223.24</ele>
        <time>2018-04-16T08:21:24Z</time>
      </trkpt>
      <trkpt lat="43.53109" lon="5.30354">
        <ele>223.12</ele>
        <time>2018-04-16T08:21:39Z</time>
      </trkpt>
      <trkpt lat="43.53103" lon="5.30369">
        <ele>222.72</ele>
        <time>2018-04-16T08:21:51Z</time>
      </trkpt>
      <trkpt lat="43.53102" lon="5.30371">
        <ele>222.53</ele>
        <time>2018-04-16T08:21:53Z</time>
      </trkpt>
      <trkpt lat="43.5309" lon="5.30393">
        <ele>221.11</ele>
        <time>2018-04-16T08:22:11Z</time>
      </trkpt>
      <trkpt lat="43.53083" lon="5.30408">
        <ele>219.99</ele>
        <time>2018-04-16T08:22:23Z</time>
      </trkpt>
      <trkpt lat="43.53081" lon="5.30419">
        <ele>219.04</ele>
        <time>2018-04-16T08:22:30Z</time>
      </trkpt>
      <trkpt lat="43.53085" lon="5.30444">
        <ele>218.49</ele>
        <time>2018-04-16T08:22:48Z</time>
      </trkpt>
      <trkpt lat="43.53084" lon="5.30456">
        <ele>218.02</ele>
        <time>2018-04-16T08:22:55Z</time>
      </trkpt>
      <trkpt lat="43.53077" lon="5.30481">
        <ele>217.16</ele>
        <time>2018-04-16T08:23:11Z</time>
      </trkpt>
      <trkpt lat="43.53076" lon="5.30485">
        <ele>217</ele>
        <time>2018-04-16T08:23:14Z</time>
      </trkpt>
      <trkpt lat="43.53067" lon="5.30506">
        <ele>214.79</ele>
        <time>2018-04-16T08:23:31Z</time>
      </trkpt>
      <trkpt lat="43.53054" lon="5.30528">
        <ele>213.48</ele>
        <time>2018-04-16T08:23:48Z</time>
      </trkpt>
      <trkpt lat="43.53041" lon="5.30553">
        <ele>212.22</ele>
        <time>2018-04-16T08:24:08Z</time>
      </trkpt>
      <trkpt lat="43.53029" lon="5.3057">
        <ele>210.94</ele>
        <time>2018-04-16T08:24:23Z</time>
      </trkpt>
      <trkpt lat="43.53017" lon="5.30591">
        <ele>209.91</ele>
        <time>2018-04-16T08:24:40Z</time>
      </trkpt>
      <trkpt lat="43.53008" lon="5.30611">
        <ele>209.53</ele>
        <time>2018-04-16T08:24:54Z</time>
      </trkpt>
      <trkpt lat="43.53002" lon="5.3063">
        <ele>207.85</ele>
        <time>2018-04-16T08:25:09Z</time>
      </trkpt>
      <trkpt lat="43.52998" lon="5.30639">
        <ele>206.87</ele>
        <time>2018-04-16T08:25:30Z</time>
      </trkpt>
      <trkpt lat="43.52995" lon="5.30644">
        <ele>206.69</ele>
        <time>2018-04-16T08:25:55Z</time>
      </trkpt>
      <trkpt lat="43.5299" lon="5.30652">
        <ele>206.66</ele>
        <time>2018-04-16T08:26:23Z</time>
      </trkpt>
      <trkpt lat="43.52995" lon="5.30648">
        <ele>206.75</ele>
        <time>2018-04-16T08:26:51Z</time>
      </trkpt>
      <trkpt lat="43.52998" lon="5.30647">
        <ele>207.09</ele>
        <time>2018-04-16T08:27:24Z</time>
      </trkpt>
      <trkpt lat="43.52995" lon="5.30649">
        <ele>206.7</ele>
        <time>2018-04-16T08:27:53Z</time>
      </trkpt>
      <trkpt lat="43.52996" lon="5.30648">
        <ele>206.57</ele>
        <time>2018-04-16T08:28:24Z</time>
      </trkpt>
      <trkpt lat="43.52994" lon="5.3066">
        <ele>206.26</ele>
        <time>2018-04-16T08:28:47Z</time>
      </trkpt>
      <trkpt lat="43.52985" lon="5.30672">
        <ele>204.34</ele>
        <time>2018-04-16T08:29:09Z</time>
      </trkpt>
      <trkpt lat="43.52972" lon="5.30685">
        <ele>203.67</ele>
        <time>2018-04-16T08:29:30Z</time>
      </trkpt>
      <trkpt lat="43.52967" lon="5.30697">
        <ele>202.85</ele>
        <time>2018-04-16T08:29:42Z</time>
      </trkpt>
      <trkpt lat="43.52961" lon="5.30715">
        <ele>201.02</ele>
        <time>2018-04-16T08:29:56Z</time>
      </trkpt>
      <trkpt lat="43.52953" lon="5.30728">
        <ele>199.77</ele>
        <time>2018-04-16T08:30:08Z</time>
      </trkpt>
      <trkpt lat="43.5294" lon="5.30749">
        <ele>196.75</ele>
        <time>2018-04-16T08:30:33Z</time>
      </trkpt>
      <trkpt lat="43.52944" lon="5.30757">
        <ele>193.6</ele>
        <time>2018-04-16T08:30:47Z</time>
      </trkpt>
      <trkpt lat="43.52956" lon="5.30766">
        <ele>190.52</ele>
        <time>2018-04-16T08:31:07Z</time>
      </trkpt>
      <trkpt lat="43.52956" lon="5.30766">
        <ele>190.37</ele>
        <time>2018-04-16T08:31:08Z</time>
      </trkpt>
      <trkpt lat="43.5298" lon="5.30771">
        <ele>187.14</ele>
        <time>2018-04-16T08:31:28Z</time>
      </trkpt>
      <trkpt lat="43.52996" lon="5.3078">
        <ele>185.74</ele>
        <time>2018-04-16T08:31:47Z</time>
      </trkpt>
      <trkpt lat="43.53005" lon="5.30799">
        <ele>184.29</ele>
        <time>2018-04-16T08:32:05Z</time>
      </trkpt>
      <trkpt lat="43.5301" lon="5.30806">
        <ele>183.92</ele>
        <time>2018-04-16T08:32:13Z</time>
      </trkpt>
      <trkpt lat="43.53031" lon="5.3083">
        <ele>184.12</ele>
        <time>2018-04-16T08:32:37Z</time>
      </trkpt>
      <trkpt lat="43.53042" lon="5.30846">
        <ele>184.73</ele>
        <time>2018-04-16T08:32:51Z</time>
      </trkpt>
      <trkpt lat="43.53046" lon="5.3086">
        <ele>185.49</ele>
        <time>2018-04-16T08:33:07Z</time>
      </trkpt>
      <trkpt lat="43.53053" lon="5.30881">
        <ele>185.98</ele>
        <time>2018-04-16T08:33:26Z</time>
      </trkpt>
      <trkpt lat="43.53054" lon="5.30889">
        <ele>186.6</ele>
        <time>2018-04-16T08:33:42Z</time>
      </trkpt>
      <trkpt lat="43.53051" lon="5.30904">
        <ele>187.67</ele>
        <time>2018-04-16T08:34:00Z</time>
      </trkpt>
      <trkpt lat="43.53052" lon="5.30905">
        <ele>187.76</ele>
        <time>2018-04-16T08:34:02Z</time>
      </trkpt>
      <trkpt lat="43.53044" lon="5.30921">
        <ele>188.3</ele>
        <time>2018-04-16T08:34:14Z</time>
      </trkpt>
      <trkpt lat="43.53043" lon="5.30931">
        <ele>189</ele>
        <time>2018-04-16T08:34:39Z</time>
      </trkpt>
      <trkpt lat="43.53039" lon="5.30951">
        <ele>189.51</ele>
        <time>2018-04-16T08:35:01Z</time>
      </trkpt>
      <trkpt lat="43.53038" lon="5.30977">
        <ele>190.74</ele>
        <time>2018-04-16T08:35:22Z</time>
      </trkpt>
      <trkpt lat="43.53038" lon="5.30986">
        <ele>191.09</ele>
        <time>2018-04-16T08:35:39Z</time>
      </trkpt>
      <trkpt lat="43.53043" lon="5.30999">
        <ele>191.44</ele>
        <time>2018-04-16T08:36:04Z</time>
      </trkpt>
      <trkpt lat="43.53042" lon="5.31021">
        <ele>191.75</ele>
        <time>2018-04-16T08:36:31Z</time>
      </trkpt>
      <trkpt lat="43.53048" lon="5.31025">
        <ele>192.7</ele>
        <time>2018-04-16T08:36:56Z</time>
      </trkpt>
      <trkpt lat="43.53045" lon="5.31006">
        <ele>193.77</ele>
        <time>2018-04-16T08:37:17Z</time>
      </trkpt>
      <trkpt lat="43.53048" lon="5.30989">
        <ele>192.48</ele>
        <time>2018-04-16T08:37:37Z</time>
      </trkpt>
      <trkpt lat="43.53058" lon="5.3097">
        <ele>194.72</ele>
        <time>2018-04-16T08:37:57Z</time>
      </trkpt>
      <trkpt lat="43.53073" lon="5.3096">
        <ele>197.25</ele>
        <time>2018-04-16T08:38:21Z</time>
      </trkpt>
      <trkpt lat="43.53081" lon="5.30968">
        <ele>198.27</ele>
        <time>2018-04-16T08:38:40Z</time>
      </trkpt>
      <trkpt lat="43.53088" lon="5.3099">
        <ele>200.24</ele>
        <time>2018-04-16T08:39:02Z</time>
      </trkpt>
      <trkpt lat="43.53088" lon="5.30991">
        <ele>200.32</ele>
        <time>2018-04-16T08:39:03Z</time>
      </trkpt>
      <trkpt lat="43.53094" lon="5.31006">
        <ele>201.3</ele>
        <time>2018-04-16T08:39:15Z</time>
      </trkpt>
      <trkpt lat="43.53101" lon="5.31015">
        <ele>202.37</ele>
        <time>2018-04-16T08:39:27Z</time>
      </trkpt>
      <trkpt lat="43.53117" lon="5.31022">
        <ele>204.24</ele>
        <time>2018-04-16T08:39:45Z</time>
      </trkpt>
      <trkpt lat="43.5313" lon="5.31033">
        <ele>205.29</ele>
        <time>2018-04-16T08:40:01Z</time>
      </trkpt>
      <trkpt lat="43.53142" lon="5.31042">
        <ele>205.42</ele>
        <time>2018-04-16T08:40:16Z</time>
      </trkpt>
      <trkpt lat="43.5315" lon="5.31042">
        <ele>205.85</ele>
        <time>2018-04-16T08:40:24Z</time>
      </trkpt>
      <trkpt lat="43.53163" lon="5.31044">
        <ele>206.43</ele>
        <time>2018-04-16T08:40:37Z</time>
      </trkpt>
      <trkpt lat="43.53178" lon="5.31053">
        <ele>207.16</ele>
        <time>2018-04-16T08:40:55Z</time>
      </trkpt>
      <trkpt lat="43.5319" lon="5.31064">
        <ele>207.81</ele>
        <time>2018-04-16T08:41:10Z</time>
      </trkpt>
      <trkpt lat="43.53197" lon="5.31071">
        <ele>208.76</ele>
        <time>2018-04-16T08:41:26Z</time>
      </trkpt>
      <trkpt lat="43.53212" lon="5.31075">
        <ele>209.35</ele>
        <time>2018-04-16T08:41:47Z</time>
      </trkpt>
      <trkpt lat="43.53224" lon="5.31097">
        <ele>210.74</ele>
        <time>2018-04-16T08:42:09Z</time>
      </trkpt>
      <trkpt lat="43.53235" lon="5.31117">
        <ele>211.47</ele>
        <time>2018-04-16T08:42:29Z</time>
      </trkpt>
      <trkpt lat="43.53252" lon="5.31118">
        <ele>212.68</ele>
        <time>2018-04-16T08:42:47Z</time>
      </trkpt>
      <trkpt lat="43.53272" lon="5.3112">
        <ele>213.94</ele>
        <time>2018-04-16T08:43:04Z</time>
      </trkpt>
      <trkpt lat="43.53286" lon="5.31129">
        <ele>214.16</ele>
        <time>2018-04-16T08:43:19Z</time>
      </trkpt>
      <trkpt lat="43.53297" lon="5.31129">
        <ele>214.47</ele>
        <time>2018-04-16T08:43:26Z</time>
      </trkpt>
      <trkpt lat="43.53323" lon="5.31121">
        <ele>216.3</ele>
        <time>2018-04-16T08:43:52Z</time>
      </trkpt>
      <trkpt lat="43.53338" lon="5.31113">
        <ele>217.25</ele>
        <time>2018-04-16T08:44:08Z</time>
      </trkpt>
      <trkpt lat="43.53355" lon="5.31104">
        <ele>218.31</ele>
        <time>2018-04-16T08:44:25Z</time>
      </trkpt>
      <trkpt lat="43.53366" lon="5.31099">
        <ele>218.73</ele>
        <time>2018-04-16T08:44:34Z</time>
      </trkpt>
      <trkpt lat="43.53384" lon="5.31093">
        <ele>219.42</ele>
        <time>2018-04-16T08:44:50Z</time>
      </trkpt>
      <trkpt lat="43.53391" lon="5.31092">
        <ele>219.98</ele>
        <time>2018-04-16T08:45:02Z</time>
      </trkpt>
      <trkpt lat="43.53394" lon="5.31091">
        <ele>220.04</ele>
        <time>2018-04-16T08:45:04Z</time>
      </trkpt>
      <trkpt lat="43.53411" lon="5.31084">
        <ele>220.83</ele>
        <time>2018-04-16T08:45:20Z</time>
      </trkpt>
      <trkpt lat="43.53426" lon="5.31077">
        <ele>221.98</ele>
        <time>2018-04-16T08:45:35Z</time>
      </trkpt>
      <trkpt lat="43.53444" lon="5.31068">
        <ele>223.19</ele>
        <time>2018-04-16T08:45:54Z</time>
      </trkpt>
      <trkpt lat="43.53471" lon="5.3106">
        <ele>225.55</ele>
        <time>2018-04-16T08:46:18Z</time>
      </trkpt>
      <trkpt lat="43.53487" lon="5.31055">
        <ele>226.59</ele>
        <time>2018-04-16T08:46:31Z</time>
      </trkpt>
      <trkpt lat="43.53504" lon="5.31046">
        <ele>227.75</ele>
        <time>2018-04-16T08:46:47Z</time>
      </trkpt>
      <trkpt lat="43.53512" lon="5.31043">
        <ele>228.2</ele>
        <time>2018-04-16T08:46:59Z</time>
      </trkpt>
      <trkpt lat="43.53514" lon="5.31043">
        <ele>228.34</ele>
        <time>2018-04-16T08:47:01Z</time>
      </trkpt>
      <trkpt lat="43.53524" lon="5.31039">
        <ele>228.6</ele>
        <time>2018-04-16T08:47:14Z</time>
      </trkpt>
      <trkpt lat="43.53531" lon="5.31037">
        <ele>228.78</ele>
        <time>2018-04-16T08:47:18Z</time>
      </trkpt>
      <trkpt lat="43.53552" lon="5.31031">
        <ele>229.74</ele>
        <time>2018-04-16T08:47:32Z</time>
      </trkpt>
      <trkpt lat="43.53567" lon="5.31023">
        <ele>230.15</ele>
        <time>2018-04-16T08:47:49Z</time>
      </trkpt>
      <trkpt lat="43.53586" lon="5.31013">
        <ele>229.81</ele>
        <time>2018-04-16T08:48:08Z</time>
      </trkpt>
      <trkpt lat="43.53605" lon="5.31012">
        <ele>229.43</ele>
        <time>2018-04-16T08:48:24Z</time>
      </trkpt>
      <trkpt lat="43.53628" lon="5.31018">
        <ele>228.35</ele>
        <time>2018-04-16T08:48:45Z</time>
      </trkpt>
      <trkpt lat="43.53646" lon="5.31017">
        <ele>227.47</ele>
        <time>2018-04-16T08:49:06Z</time>
      </trkpt>
      <trkpt lat="43.53652" lon="5.31018">
        <ele>227.21</ele>
        <time>2018-04-16T08:49:12Z</time>
      </trkpt>
      <trkpt lat="43.53675" lon="5.31039">
        <ele>227.05</ele>
        <time>2018-04-16T08:49:33Z</time>
      </trkpt>
      <trkpt lat="43.53682" lon="5.31056">
        <ele>227.33</ele>
        <time>2018-04-16T08:49:45Z</time>
      </trkpt>
      <trkpt lat="43.53689" lon="5.31078">
        <ele>227.93</ele>
        <time>2018-04-16T08:50:00Z</time>
      </trkpt>
      <trkpt lat="43.53692" lon="5.31085">
        <ele>228.04</ele>
        <time>2018-04-16T08:50:06Z</time>
      </trkpt>
      <trkpt lat="43.53706" lon="5.31103">
        <ele>228.06</ele>
        <time>2018-04-16T08:50:21Z</time>
      </trkpt>
      <trkpt lat="43.53722" lon="5.31111">
        <ele>228.1</ele>
        <time>2018-04-16T08:50:35Z</time>
      </trkpt>
      <trkpt lat="43.53737" lon="5.31119">
        <ele>228.23</ele>
        <time>2018-04-16T08:50:51Z</time>
      </trkpt>
      <trkpt lat="43.53751" lon="5.3113">
        <ele>229.45</ele>
        <time>2018-04-16T08:51:06Z</time>
      </trkpt>
      <trkpt lat="43.53765" lon="5.31139">
        <ele>230.02</ele>
        <time>2018-04-16T08:51:20Z</time>
      </trkpt>
      <trkpt lat="43.53778" lon="5.31143">
        <ele>230.75</ele>
        <time>2018-04-16T08:51:43Z</time>
      </trkpt>
      <trkpt lat="43.53788" lon="5.31143">
        <ele>230.01</ele>
        <time>2018-04-16T08:52:06Z</time>
      </trkpt>
      <trkpt lat="43.53795" lon="5.31148">
        <ele>230.03</ele>
        <time>2018-04-16T08:52:21Z</time>
      </trkpt>
      <trkpt lat="43.53798" lon="5.31157">
        <ele>230.47</ele>
        <time>2018-04-16T08:52:38Z</time>
      </trkpt>
      <trkpt lat="43.53801" lon="5.31165">
        <ele>231.38</ele>
        <time>2018-04-16T08:52:57Z</time>
      </trkpt>
      <trkpt lat="43.53803" lon="5.31167">
        <ele>231.45</ele>
        <time>2018-04-16T08:53:26Z</time>
      </trkpt>
      <trkpt lat="43.53804" lon="5.31167">
        <ele>231.46</ele>
        <time>2018-04-16T08:53:27Z</time>
      </trkpt>
      <trkpt lat="43.53809" lon="5.31172">
        <ele>231.55</ele>
        <time>2018-04-16T08:53:33Z</time>
      </trkpt>
      <trkpt lat="43.53824" lon="5.31185">
        <ele>231.86</ele>
        <time>2018-04-16T08:53:48Z</time>
      </trkpt>
      <trkpt lat="43.53837" lon="5.31197">
        <ele>231.67</ele>
        <time>2018-04-16T08:54:01Z</time>
      </trkpt>
      <trkpt lat="43.53842" lon="5.31206">
        <ele>231.45</ele>
        <time>2018-04-16T08:54:09Z</time>
      </trkpt>
      <trkpt lat="43.53847" lon="5.31221">
        <ele>231.63</ele>
        <time>2018-04-16T08:54:20Z</time>
      </trkpt>
      <trkpt lat="43.53853" lon="5.3124">
        <ele>232.01</ele>
        <time>2018-04-16T08:54:33Z</time>
      </trkpt>
      <trkpt lat="43.53856" lon="5.31266">
        <ele>232.84</ele>
        <time>2018-04-16T08:54:49Z</time>
      </trkpt>
      <trkpt lat="43.53859" lon="5.31288">
        <ele>234.1</ele>
        <time>2018-04-16T08:55:05Z</time>
      </trkpt>
      <trkpt lat="43.5386" lon="5.31293">
        <ele>234.29</ele>
        <time>2018-04-16T08:55:09Z</time>
      </trkpt>
      <trkpt lat="43.53871" lon="5.31313">
        <ele>234.94</ele>
        <time>2018-04-16T08:55:24Z</time>
      </trkpt>
      <trkpt lat="43.53886" lon="5.31329">
        <ele>234.96</ele>
        <time>2018-04-16T08:55:40Z</time>
      </trkpt>
      <trkpt lat="43.53904" lon="5.3136">
        <ele>234.06</ele>
        <time>2018-04-16T08:56:05Z</time>
      </trkpt>
      <trkpt lat="43.53907" lon="5.31371">
        <ele>234.07</ele>
        <time>2018-04-16T08:56:13Z</time>
      </trkpt>
      <trkpt lat="43.53908" lon="5.31377">
        <ele>233.95</ele>
        <time>2018-04-16T08:56:17Z</time>
      </trkpt>
      <trkpt lat="43.53911" lon="5.31412">
        <ele>234.03</ele>
        <time>2018-04-16T08:56:37Z</time>
      </trkpt>
      <trkpt lat="43.53913" lon="5.31424">
        <ele>233.78</ele>
        <time>2018-04-16T08:56:53Z</time>
      </trkpt>
      <trkpt lat="43.53916" lon="5.3142">
        <ele>234</ele>
        <time>2018-04-16T08:57:13Z</time>
      </trkpt>
      <trkpt lat="43.53914" lon="5.31419">
        <ele>234.12</ele>
        <time>2018-04-16T08:57:40Z</time>
      </trkpt>
      <trkpt lat="43.53915" lon="5.31424">
        <ele>234.34</ele>
        <time>2018-04-16T08:57:48Z</time>
      </trkpt>
      <trkpt lat="43.53915" lon="5.31427">
        <ele>234.33</ele>
        <time>2018-04-16T08:57:50Z</time>
      </trkpt>
      <trkpt lat="43.53924" lon="5.31457">
        <ele>233.98</ele>
        <time>2018-04-16T08:58:09Z</time>
      </trkpt>
      <trkpt lat="43.5393" lon="5.31491">
        <ele>234.06</ele>
        <time>2018-04-16T08:58:30Z</time>
      </trkpt>
      <trkpt lat="43.53928" lon="5.31516">
        <ele>234.91</ele>
        <time>2018-04-16T08:58:45Z</time>
      </trkpt>
      <trkpt lat="43.5393" lon="5.31543">
        <ele>235.89</ele>
        <time>2018-04-16T08:59:01Z</time>
      </trkpt>
      <trkpt lat="43.53943" lon="5.31567">
        <ele>236.18</ele>
        <time>2018-04-16T08:59:19Z</time>
      </trkpt>
      <trkpt lat="43.53938" lon="5.31593">
        <ele>236.41</ele>
        <time>2018-04-16T08:59:36Z</time>
      </trkpt>
      <trkpt lat="43.53921" lon="5.31616">
        <ele>236.51</ele>
        <time>2018-04-16T08:59:56Z</time>
      </trkpt>
      <trkpt lat="43.53915" lon="5.31621">
        <ele>236.37</ele>
        <time>2018-04-16T09:00:11Z</time>
      </trkpt>
      <trkpt lat="43.53908" lon="5.31625">
        <ele>236.45</ele>
        <time>2018-04-16T09:00:22Z</time>
      </trkpt>
      <trkpt lat="43.53903" lon="5.31629">
        <ele>236.6</ele>
        <time>2018-04-16T09:00:28Z</time>
      </trkpt>
      <trkpt lat="43.53899" lon="5.31631">
        <ele>236.6</ele>
        <time>2018-04-16T09:00:32Z</time>
      </trkpt>
      <trkpt lat="43.53883" lon="5.31654">
        <ele>236.29</ele>
        <time>2018-04-16T09:00:52Z</time>
      </trkpt>
      <trkpt lat="43.5388" lon="5.31659">
        <ele>236.14</ele>
        <time>2018-04-16T09:00:56Z</time>
      </trkpt>
      <trkpt lat="43.5387" lon="5.31687">
        <ele>235.44</ele>
        <time>2018-04-16T09:01:16Z</time>
      </trkpt>
      <trkpt lat="43.53869" lon="5.31691">
        <ele>235.35</ele>
        <time>2018-04-16T09:01:19Z</time>
      </trkpt>
      <trkpt lat="43.53862" lon="5.31713">
        <ele>234.61</ele>
        <time>2018-04-16T09:01:34Z</time>
      </trkpt>
      <trkpt lat="43.53855" lon="5.3173">
        <ele>233.95</ele>
        <time>2018-04-16T09:01:47Z</time>
      </trkpt>
      <trkpt lat="43.53851" lon="5.31736">
        <ele>233.37</ele>
        <time>2018-04-16T09:01:52Z</time>
      </trkpt>
      <trkpt lat="43.53847" lon="5.31742">
        <ele>233.1</ele>
        <time>2018-04-16T09:01:57Z</time>
      </trkpt>
      <trkpt lat="43.53842" lon="5.31749">
        <ele>232.73</ele>
        <time>2018-04-16T09:02:03Z</time>
      </trkpt>
      <trkpt lat="43.53838" lon="5.31759">
        <ele>231.94</ele>
        <time>2018-04-16T09:02:10Z</time>
      </trkpt>
      <trkpt lat="43.53828" lon="5.31785">
        <ele>230.93</ele>
        <time>2018-04-16T09:02:28Z</time>
      </trkpt>
      <trkpt lat="43.53816" lon="5.31802">
        <ele>229.69</ele>
        <time>2018-04-16T09:02:43Z</time>
      </trkpt>
      <trkpt lat="43.53809" lon="5.31815">
        <ele>228.9</ele>
        <time>2018-04-16T09:02:53Z</time>
      </trkpt>
      <trkpt lat="43.53796" lon="5.31839">
        <ele>227.06</ele>
        <time>2018-04-16T09:03:11Z</time>
      </trkpt>
      <trkpt lat="43.53786" lon="5.3186">
        <ele>225.18</ele>
        <time>2018-04-16T09:03:28Z</time>
      </trkpt>
      <trkpt lat="43.53782" lon="5.31871">
        <ele>224.11</ele>
        <time>2018-04-16T09:03:36Z</time>
      </trkpt>
      <trkpt lat="43.5378" lon="5.31878">
        <ele>223.53</ele>
        <time>2018-04-16T09:03:41Z</time>
      </trkpt>
      <trkpt lat="43.53777" lon="5.31886">
        <ele>222.63</ele>
        <time>2018-04-16T09:03:47Z</time>
      </trkpt>
      <trkpt lat="43.53766" lon="5.31906">
        <ele>220.39</ele>
        <time>2018-04-16T09:04:04Z</time>
      </trkpt>
      <trkpt lat="43.53756" lon="5.31928">
        <ele>218.08</ele>
        <time>2018-04-16T09:04:20Z</time>
      </trkpt>
      <trkpt lat="43.53745" lon="5.31941">
        <ele>216.22</ele>
        <time>2018-04-16T09:04:32Z</time>
      </trkpt>
      <trkpt lat="43.53732" lon="5.31961">
        <ele>214.26</ele>
        <time>2018-04-16T09:04:49Z</time>
      </trkpt>
      <trkpt lat="43.53721" lon="5.31975">
        <ele>212.45</ele>
        <time>2018-04-16T09:05:05Z</time>
      </trkpt>
      <trkpt lat="43.53708" lon="5.31978">
        <ele>211.26</ele>
        <time>2018-04-16T09:05:20Z</time>
      </trkpt>
      <trkpt lat="43.53696" lon="5.31996">
        <ele>208.72</ele>
        <time>2018-04-16T09:05:42Z</time>
      </trkpt>
      <trkpt lat="43.53703" lon="5.32019">
        <ele>205.9</ele>
        <time>2018-04-16T09:06:05Z</time>
      </trkpt>
      <trkpt lat="43.53715" lon="5.32039">
        <ele>206.52</ele>
        <time>2018-04-16T09:06:27Z</time>
      </trkpt>
      <trkpt lat="43.53718" lon="5.32041">
        <ele>206.75</ele>
        <time>2018-04-16T09:06:30Z</time>
      </trkpt>
      <trkpt lat="43.53732" lon="5.32053">
        <ele>207.01</ele>
        <time>2018-04-16T09:06:47Z</time>
      </trkpt>
      <trkpt lat="43.53742" lon="5.32063">
        <ele>208.22</ele>
        <time>2018-04-16T09:07:01Z</time>
      </trkpt>
      <trkpt lat="43.5375" lon="5.32077">
        <ele>211.24</ele>
        <time>2018-04-16T09:07:16Z</time>
      </trkpt>
      <trkpt lat="43.53757" lon="5.32091">
        <ele>213.37</ele>
        <time>2018-04-16T09:07:29Z</time>
      </trkpt>
      <trkpt lat="43.53758" lon="5.32092">
        <ele>213.55</ele>
        <time>2018-04-16T09:07:30Z</time>
      </trkpt>
      <trkpt lat="43.5376" lon="5.32096">
        <ele>214.42</ele>
        <time>2018-04-16T09:07:34Z</time>
      </trkpt>
      <trkpt lat="43.53762" lon="5.32097">
        <ele>214.75</ele>
        <time>2018-04-16T09:07:36Z</time>
      </trkpt>
      <trkpt lat="43.53781" lon="5.32119">
        <ele>216.62</ele>
        <time>2018-04-16T09:07:57Z</time>
      </trkpt>
      <trkpt lat="43.53794" lon="5.32134">
        <ele>217.55</ele>
        <time>2018-04-16T09:08:12Z</time>
      </trkpt>
      <trkpt lat="43.53805" lon="5.32151">
        <ele>218.28</ele>
        <time>2018-04-16T09:08:27Z</time>
      </trkpt>
      <trkpt lat="43.53817" lon="5.32168">
        <ele>219.53</ele>
        <time>2018-04-16T09:08:43Z</time>
      </trkpt>
      <trkpt lat="43.5383" lon="5.32185">
        <ele>220.47</ele>
        <time>2018-04-16T09:08:59Z</time>
      </trkpt>
      <trkpt lat="43.53842" lon="5.322">
        <ele>220.96</ele>
        <time>2018-04-16T09:09:13Z</time>
      </trkpt>
      <trkpt lat="43.53854" lon="5.32217">
        <ele>222.44</ele>
        <time>2018-04-16T09:09:30Z</time>
      </trkpt>
      <trkpt lat="43.53867" lon="5.32239">
        <ele>222.71</ele>
        <time>2018-04-16T09:09:47Z</time>
      </trkpt>
      <trkpt lat="43.53876" lon="5.32254">
        <ele>222.88</ele>
        <time>2018-04-16T09:10:00Z</time>
      </trkpt>
      <trkpt lat="43.53892" lon="5.3228">
        <ele>222.43</ele>
        <time>2018-04-16T09:10:28Z</time>
      </trkpt>
      <trkpt lat="43.53903" lon="5.32295">
        <ele>223.05</ele>
        <time>2018-04-16T09:10:48Z</time>
      </trkpt>
      <trkpt lat="43.53915" lon="5.32313">
        <ele>224.51</ele>
        <time>2018-04-16T09:11:09Z</time>
      </trkpt>
      <trkpt lat="43.53928" lon="5.32344">
        <ele>226.27</ele>
        <time>2018-04-16T09:11:36Z</time>
      </trkpt>
      <trkpt lat="43.5393" lon="5.32354">
        <ele>226.44</ele>
        <time>2018-04-16T09:11:57Z</time>
      </trkpt>
      <trkpt lat="43.5393" lon="5.32355">
        <ele>226.49</ele>
        <time>2018-04-16T09:12:20Z</time>
      </trkpt>
      <trkpt lat="43.53925" lon="5.32354">
        <ele>226.2</ele>
        <time>2018-04-16T09:12:48Z</time>
      </trkpt>
      <trkpt lat="43.53925" lon="5.32357">
        <ele>226.52</ele>
        <time>2018-04-16T09:13:11Z</time>
      </trkpt>
      <trkpt lat="43.53926" lon="5.32355">
        <ele>226.43</ele>
        <time>2018-04-16T09:13:41Z</time>
      </trkpt>
      <trkpt lat="43.53926" lon="5.32355">
        <ele>226.38</ele>
        <time>2018-04-16T09:14:07Z</time>
      </trkpt>
      <trkpt lat="43.53926" lon="5.32355">
        <ele>226.38</ele>
        <time>2018-04-16T09:14:38Z</time>
      </trkpt>
      <trkpt lat="43.53928" lon="5.32357">
        <ele>226.33</ele>
        <time>2018-04-16T09:15:09Z</time>
      </trkpt>
      <trkpt lat="43.53929" lon="5.32357">
        <ele>226.55</ele>
        <time>2018-04-16T09:15:38Z</time>
      </trkpt>
      <trkpt lat="43.5393" lon="5.32358">
        <ele>226.16</ele>
        <time>2018-04-16T09:16:05Z</time>
      </trkpt>
      <trkpt lat="43.53928" lon="5.3236">
        <ele>226.49</ele>
        <time>2018-04-16T09:16:35Z</time>
      </trkpt>
      <trkpt lat="43.5393" lon="5.3236">
        <ele>226.29</ele>
        <time>2018-04-16T09:17:07Z</time>
      </trkpt>
      <trkpt lat="43.53932" lon="5.32363">
        <ele>226.09</ele>
        <time>2018-04-16T09:17:22Z</time>
      </trkpt>
      <trkpt lat="43.53933" lon="5.3236">
        <ele>226.25</ele>
        <time>2018-04-16T09:17:46Z</time>
      </trkpt>
      <trkpt lat="43.53933" lon="5.32362">
        <ele>226.3</ele>
        <time>2018-04-16T09:18:18Z</time>
      </trkpt>
      <trkpt lat="43.53939" lon="5.3238">
        <ele>225.67</ele>
        <time>2018-04-16T09:18:36Z</time>
      </trkpt>
      <trkpt lat="43.53938" lon="5.32385">
        <ele>225.52</ele>
        <time>2018-04-16T09:18:56Z</time>
      </trkpt>
      <trkpt lat="43.53937" lon="5.32386">
        <ele>225.58</ele>
        <time>2018-04-16T09:19:25Z</time>
      </trkpt>
      <trkpt lat="43.5394" lon="5.32386">
        <ele>225.55</ele>
        <time>2018-04-16T09:19:56Z</time>
      </trkpt>
      <trkpt lat="43.5394" lon="5.32389">
        <ele>225.46</ele>
        <time>2018-04-16T09:20:29Z</time>
      </trkpt>
      <trkpt lat="43.53937" lon="5.32388">
        <ele>225.23</ele>
        <time>2018-04-16T09:20:59Z</time>
      </trkpt>
      <trkpt lat="43.53939" lon="5.32396">
        <ele>225.1</ele>
        <time>2018-04-16T09:21:25Z</time>
      </trkpt>
      <trkpt lat="43.53941" lon="5.32401">
        <ele>225.06</ele>
        <time>2018-04-16T09:21:29Z</time>
      </trkpt>
      <trkpt lat="43.53948" lon="5.32421">
        <ele>225.13</ele>
        <time>2018-04-16T09:21:45Z</time>
      </trkpt>
      <trkpt lat="43.53954" lon="5.32434">
        <ele>224.71</ele>
        <time>2018-04-16T09:22:00Z</time>
      </trkpt>
      <trkpt lat="43.53957" lon="5.32438">
        <ele>224.39</ele>
        <time>2018-04-16T09:22:16Z</time>
      </trkpt>
      <trkpt lat="43.5396" lon="5.32442">
        <ele>224.31</ele>
        <time>2018-04-16T09:22:21Z</time>
      </trkpt>
      <trkpt lat="43.53961" lon="5.3245">
        <ele>224.03</ele>
        <time>2018-04-16T09:22:39Z</time>
      </trkpt>
      <trkpt lat="43.53964" lon="5.32464">
        <ele>223.61</ele>
        <time>2018-04-16T09:23:03Z</time>
      </trkpt>
      <trkpt lat="43.53967" lon="5.32482">
        <ele>223.66</ele>
        <time>2018-04-16T09:23:20Z</time>
      </trkpt>
      <trkpt lat="43.53968" lon="5.32488">
        <ele>223.63</ele>
        <time>2018-04-16T09:23:25Z</time>
      </trkpt>
      <trkpt lat="43.53969" lon="5.32512">
        <ele>223.13</ele>
        <time>2018-04-16T09:23:41Z</time>
      </trkpt>
      <trkpt lat="43.53969" lon="5.32537">
        <ele>222.21</ele>
        <time>2018-04-16T09:23:58Z</time>
      </trkpt>
      <trkpt lat="43.53969" lon="5.3256">
        <ele>221.93</ele>
        <time>2018-04-16T09:24:14Z</time>
      </trkpt>
      <trkpt lat="43.5397" lon="5.32564">
        <ele>221.88</ele>
        <time>2018-04-16T09:24:17Z</time>
      </trkpt>
      <trkpt lat="43.53971" lon="5.32594">
        <ele>220.79</ele>
        <time>2018-04-16T09:24:35Z</time>
      </trkpt>
      <trkpt lat="43.5397" lon="5.32613">
        <ele>219.51</ele>
        <time>2018-04-16T09:24:52Z</time>
      </trkpt>
      <trkpt lat="43.53968" lon="5.32626">
        <ele>218.69</ele>
        <time>2018-04-16T09:25:05Z</time>
      </trkpt>
      <trkpt lat="43.53963" lon="5.32645">
        <ele>218.1</ele>
        <time>2018-04-16T09:25:22Z</time>
      </trkpt>
      <trkpt lat="43.53963" lon="5.32648">
        <ele>217.34</ele>
        <time>2018-04-16T09:25:48Z</time>
      </trkpt>
      <trkpt lat="43.53958" lon="5.32665">
        <ele>215.64</ele>
        <time>2018-04-16T09:26:10Z</time>
      </trkpt>
      <trkpt lat="43.53955" lon="5.32685">
        <ele>212.81</ele>
        <time>2018-04-16T09:26:27Z</time>
      </trkpt>
      <trkpt lat="43.53955" lon="5.32707">
        <ele>209.97</ele>
        <time>2018-04-16T09:26:45Z</time>
      </trkpt>
      <trkpt lat="43.53954" lon="5.32722">
        <ele>209.12</ele>
        <time>2018-04-16T09:27:00Z</time>
      </trkpt>
      <trkpt lat="43.53957" lon="5.32745">
        <ele>208.77</ele>
        <time>2018-04-16T09:27:17Z</time>
      </trkpt>
      <trkpt lat="43.53956" lon="5.32768">
        <ele>208.43</ele>
        <time>2018-04-16T09:27:33Z</time>
      </trkpt>
      <trkpt lat="43.53954" lon="5.32787">
        <ele>207.6</ele>
        <time>2018-04-16T09:27:49Z</time>
      </trkpt>
      <trkpt lat="43.53952" lon="5.32791">
        <ele>207.14</ele>
        <time>2018-04-16T09:28:06Z</time>
      </trkpt>
      <trkpt lat="43.53952" lon="5.3279">
        <ele>207.18</ele>
        <time>2018-04-16T09:28:32Z</time>
      </trkpt>
      <trkpt lat="43.53954" lon="5.3279">
        <ele>206.88</ele>
        <time>2018-04-16T09:29:02Z</time>
      </trkpt>
      <trkpt lat="43.53953" lon="5.32791">
        <ele>206.93</ele>
        <time>2018-04-16T09:29:38Z</time>
      </trkpt>
      <trkpt lat="43.5396" lon="5.32792">
        <ele>206.56</ele>
        <time>2018-04-16T09:30:01Z</time>
      </trkpt>
      <trkpt lat="43.5396" lon="5.32796">
        <ele>205.06</ele>
        <time>2018-04-16T09:30:26Z</time>
      </trkpt>
      <trkpt lat="43.53955" lon="5.32795">
        <ele>205.91</ele>
        <time>2018-04-16T09:30:57Z</time>
      </trkpt>
      <trkpt lat="43.53953" lon="5.32798">
        <ele>207.02</ele>
        <time>2018-04-16T09:31:17Z</time>
      </trkpt>
      <trkpt lat="43.53952" lon="5.32806">
        <ele>206.94</ele>
        <time>2018-04-16T09:31:23Z</time>
      </trkpt>
      <trkpt lat="43.5395" lon="5.32831">
        <ele>205.22</ele>
        <time>2018-04-16T09:31:40Z</time>
      </trkpt>
      <trkpt lat="43.53947" lon="5.32856">
        <ele>203.4</ele>
        <time>2018-04-16T09:31:56Z</time>
      </trkpt>
      <trkpt lat="43.53945" lon="5.32878">
        <ele>201.16</ele>
        <time>2018-04-16T09:32:14Z</time>
      </trkpt>
      <trkpt lat="43.53944" lon="5.32884">
        <ele>199.95</ele>
        <time>2018-04-16T09:32:41Z</time>
      </trkpt>
      <trkpt lat="43.53942" lon="5.32904">
        <ele>197.97</ele>
        <time>2018-04-16T09:32:56Z</time>
      </trkpt>
      <trkpt lat="43.53943" lon="5.32926">
        <ele>195.4</ele>
        <time>2018-04-16T09:33:13Z</time>
      </trkpt>
      <trkpt lat="43.53944" lon="5.32938">
        <ele>194.61</ele>
        <time>2018-04-16T09:33:23Z</time>
      </trkpt>
      <trkpt lat="43.53944" lon="5.32942">
        <ele>194.6</ele>
        <time>2018-04-16T09:33:26Z</time>
      </trkpt>
      <trkpt lat="43.53945" lon="5.32972">
        <ele>194.25</ele>
        <time>2018-04-16T09:33:44Z</time>
      </trkpt>
      <trkpt lat="43.53946" lon="5.32999">
        <ele>193.01</ele>
        <time>2018-04-16T09:34:00Z</time>
      </trkpt>
      <trkpt lat="43.53952" lon="5.33022">
        <ele>190.41</ele>
        <time>2018-04-16T09:34:15Z</time>
      </trkpt>
      <trkpt lat="43.53953" lon="5.33036">
        <ele>189.02</ele>
        <time>2018-04-16T09:34:24Z</time>
      </trkpt>
      <trkpt lat="43.53953" lon="5.33064">
        <ele>186.17</ele>
        <time>2018-04-16T09:34:42Z</time>
      </trkpt>
      <trkpt lat="43.53949" lon="5.33092">
        <ele>184.42</ele>
        <time>2018-04-16T09:34:59Z</time>
      </trkpt>
      <trkpt lat="43.53949" lon="5.33121">
        <ele>182.3</ele>
        <time>2018-04-16T09:35:16Z</time>
      </trkpt>
      <trkpt lat="43.53948" lon="5.33154">
        <ele>180.1</ele>
        <time>2018-04-16T09:35:35Z</time>
      </trkpt>
      <trkpt lat="43.53946" lon="5.33183">
        <ele>177.84</ele>
        <time>2018-04-16T09:35:52Z</time>
      </trkpt>
      <trkpt lat="43.53944" lon="5.33208">
        <ele>176.03</ele>
        <time>2018-04-16T09:36:10Z</time>
      </trkpt>
      <trkpt lat="43.53943" lon="5.33233">
        <ele>173.78</ele>
        <time>2018-04-16T09:36:26Z</time>
      </trkpt>
      <trkpt lat="43.53941" lon="5.33255">
        <ele>172.44</ele>
        <time>2018-04-16T09:36:42Z</time>
      </trkpt>
      <trkpt lat="43.5394" lon="5.3326">
        <ele>172.44</ele>
        <time>2018-04-16T09:37:02Z</time>
      </trkpt>
      <trkpt lat="43.5394" lon="5.33265">
        <ele>172.47</ele>
        <time>2018-04-16T09:37:28Z</time>
      </trkpt>
      <trkpt lat="43.53942" lon="5.33266">
        <ele>171.95</ele>
        <time>2018-04-16T09:37:49Z</time>
      </trkpt>
      <trkpt lat="43.5394" lon="5.33265">
        <ele>172.25</ele>
        <time>2018-04-16T09:38:10Z</time>
      </trkpt>
      <trkpt lat="43.53928" lon="5.33261">
        <ele>173.52</ele>
        <time>2018-04-16T09:38:30Z</time>
      </trkpt>
      <trkpt lat="43.53913" lon="5.33252">
        <ele>176.48</ele>
        <time>2018-04-16T09:38:54Z</time>
      </trkpt>
      <trkpt lat="43.53907" lon="5.33249">
        <ele>176.77</ele>
        <time>2018-04-16T09:39:13Z</time>
      </trkpt>
      <trkpt lat="43.53892" lon="5.33242">
        <ele>179.42</ele>
        <time>2018-04-16T09:39:29Z</time>
      </trkpt>
      <trkpt lat="43.53872" lon="5.33241">
        <ele>182.37</ele>
        <time>2018-04-16T09:39:51Z</time>
      </trkpt>
      <trkpt lat="43.5387" lon="5.33244">
        <ele>182.96</ele>
        <time>2018-04-16T09:39:55Z</time>
      </trkpt>
      <trkpt lat="43.53864" lon="5.33266">
        <ele>183.69</ele>
        <time>2018-04-16T09:40:12Z</time>
      </trkpt>
      <trkpt lat="43.53864" lon="5.33267">
        <ele>183.61</ele>
        <time>2018-04-16T09:40:13Z</time>
      </trkpt>
      <trkpt lat="43.53866" lon="5.33286">
        <ele>182.48</ele>
        <time>2018-04-16T09:40:27Z</time>
      </trkpt>
      <trkpt lat="43.53866" lon="5.333">
        <ele>181.96</ele>
        <time>2018-04-16T09:40:42Z</time>
      </trkpt>
      <trkpt lat="43.5387" lon="5.33313">
        <ele>180.87</ele>
        <time>2018-04-16T09:40:58Z</time>
      </trkpt>
      <trkpt lat="43.5387" lon="5.33316">
        <ele>180.81</ele>
        <time>2018-04-16T09:41:00Z</time>
      </trkpt>
      <trkpt lat="43.53869" lon="5.33327">
        <ele>180.26</ele>
        <time>2018-04-16T09:41:14Z</time>
      </trkpt>
      <trkpt lat="43.5387" lon="5.33338">
        <ele>179.7</ele>
        <time>2018-04-16T09:41:25Z</time>
      </trkpt>
      <trkpt lat="43.53871" lon="5.33348">
        <ele>179.31</ele>
        <time>2018-04-16T09:41:31Z</time>
      </trkpt>
      <trkpt lat="43.53873" lon="5.33375">
        <ele>178.34</ele>
        <time>2018-04-16T09:41:48Z</time>
      </trkpt>
      <trkpt lat="43.53881" lon="5.33394">
        <ele>177.37</ele>
        <time>2018-04-16T09:42:04Z</time>
      </trkpt>
      <trkpt lat="43.53887" lon="5.33399">
        <ele>176.25</ele>
        <time>2018-04-16T09:42:11Z</time>
      </trkpt>
      <trkpt lat="43.539" lon="5.33394">
        <ele>172.91</ele>
        <time>2018-04-16T09:42:27Z</time>
      </trkpt>
      <trkpt lat="43.53907" lon="5.33381">
        <ele>171.13</ele>
        <time>2018-04-16T09:42:40Z</time>
      </trkpt>
      <trkpt lat="43.53915" lon="5.3336">
        <ele>169.76</ele>
        <time>2018-04-16T09:42:55Z</time>
      </trkpt>
      <trkpt lat="43.53928" lon="5.33348">
        <ele>167.91</ele>
        <time>2018-04-16T09:43:10Z</time>
      </trkpt>
      <trkpt lat="43.53934" lon="5.3335">
        <ele>167.64</ele>
        <time>2018-04-16T09:43:16Z</time>
      </trkpt>
      <trkpt lat="43.53944" lon="5.33355">
        <ele>166.73</ele>
        <time>2018-04-16T09:43:35Z</time>
      </trkpt>
      <trkpt lat="43.53945" lon="5.33355">
        <ele>166.46</ele>
        <time>2018-04-16T09:44:08Z</time>
      </trkpt>
      <trkpt lat="43.53952" lon="5.33359">
        <ele>166.41</ele>
        <time>2018-04-16T09:44:35Z</time>
      </trkpt>
      <trkpt lat="43.53956" lon="5.33362">
        <ele>166.56</ele>
        <time>2018-04-16T09:44:41Z</time>
      </trkpt>
      <trkpt lat="43.53955" lon="5.33367">
        <ele>166.02</ele>
        <time>2018-04-16T09:44:46Z</time>
      </trkpt>
      <trkpt lat="43.5395" lon="5.3337">
        <ele>165.68</ele>
        <time>2018-04-16T09:45:05Z</time>
      </trkpt>
      <trkpt lat="43.53947" lon="5.33377">
        <ele>165.79</ele>
        <time>2018-04-16T09:45:12Z</time>
      </trkpt>
      <trkpt lat="43.53945" lon="5.33396">
        <ele>165.91</ele>
        <time>2018-04-16T09:45:36Z</time>
      </trkpt>
      <trkpt lat="43.53947" lon="5.33406">
        <ele>166.11</ele>
        <time>2018-04-16T09:45:44Z</time>
      </trkpt>
      <trkpt lat="43.53952" lon="5.33446">
        <ele>165.88</ele>
        <time>2018-04-16T09:46:12Z</time>
      </trkpt>
      <trkpt lat="43.5395" lon="5.33456">
        <ele>165.79</ele>
        <time>2018-04-16T09:46:19Z</time>
      </trkpt>
      <trkpt lat="43.53946" lon="5.33474">
        <ele>165.93</ele>
        <time>2018-04-16T09:46:29Z</time>
      </trkpt>
      <trkpt lat="43.53941" lon="5.33498">
        <ele>165.88</ele>
        <time>2018-04-16T09:46:44Z</time>
      </trkpt>
      <trkpt lat="43.53941" lon="5.33508">
        <ele>166.02</ele>
        <time>2018-04-16T09:46:51Z</time>
      </trkpt>
      <trkpt lat="43.53938" lon="5.33522">
        <ele>165.91</ele>
        <time>2018-04-16T09:47:00Z</time>
      </trkpt>
      <trkpt lat="43.53938" lon="5.33525">
        <ele>165.86</ele>
        <time>2018-04-16T09:47:02Z</time>
      </trkpt>
      <trkpt lat="43.53933" lon="5.33553">
        <ele>165.91</ele>
        <time>2018-04-16T09:47:19Z</time>
      </trkpt>
      <trkpt lat="43.53928" lon="5.33579">
        <ele>165.68</ele>
        <time>2018-04-16T09:47:35Z</time>
      </trkpt>
      <trkpt lat="43.5392" lon="5.33608">
        <ele>165.75</ele>
        <time>2018-04-16T09:47:52Z</time>
      </trkpt>
      <trkpt lat="43.53914" lon="5.33636">
        <ele>165.9</ele>
        <time>2018-04-16T09:48:10Z</time>
      </trkpt>
      <trkpt lat="43.53912" lon="5.33645">
        <ele>165.88</ele>
        <time>2018-04-16T09:48:16Z</time>
      </trkpt>
      <trkpt lat="43.53907" lon="5.33662">
        <ele>165.71</ele>
        <time>2018-04-16T09:48:28Z</time>
      </trkpt>
      <trkpt lat="43.53898" lon="5.33688">
        <ele>165.49</ele>
        <time>2018-04-16T09:48:46Z</time>
      </trkpt>
      <trkpt lat="43.53888" lon="5.33711">
        <ele>165.43</ele>
        <time>2018-04-16T09:49:03Z</time>
      </trkpt>
      <trkpt lat="43.53878" lon="5.33732">
        <ele>165.61</ele>
        <time>2018-04-16T09:49:20Z</time>
      </trkpt>
      <trkpt lat="43.53869" lon="5.33746">
        <ele>165.36</ele>
        <time>2018-04-16T09:49:35Z</time>
      </trkpt>
      <trkpt lat="43.53858" lon="5.33758">
        <ele>165.27</ele>
        <time>2018-04-16T09:49:57Z</time>
      </trkpt>
      <trkpt lat="43.53839" lon="5.33773">
        <ele>165.62</ele>
        <time>2018-04-16T09:50:21Z</time>
      </trkpt>
      <trkpt lat="43.53818" lon="5.33789">
        <ele>165.75</ele>
        <time>2018-04-16T09:50:46Z</time>
      </trkpt>
      <trkpt lat="43.53814" lon="5.33789">
        <ele>165.95</ele>
        <time>2018-04-16T09:51:06Z</time>
      </trkpt>
      <trkpt lat="43.53809" lon="5.33782">
        <ele>166.07</ele>
        <time>2018-04-16T09:51:20Z</time>
      </trkpt>
      <trkpt lat="43.53801" lon="5.3378">
        <ele>166.25</ele>
        <time>2018-04-16T09:51:29Z</time>
      </trkpt>
      <trkpt lat="43.53783" lon="5.33786">
        <ele>165.23</ele>
        <time>2018-04-16T09:51:46Z</time>
      </trkpt>
      <trkpt lat="43.53761" lon="5.33792">
        <ele>165.21</ele>
        <time>2018-04-16T09:52:06Z</time>
      </trkpt>
      <trkpt lat="43.53744" lon="5.33791">
        <ele>165.31</ele>
        <time>2018-04-16T09:52:23Z</time>
      </trkpt>
      <trkpt lat="43.53723" lon="5.33788">
        <ele>165.13</ele>
        <time>2018-04-16T09:52:42Z</time>
      </trkpt>
      <trkpt lat="43.53713" lon="5.33785">
        <ele>165.16</ele>
        <time>2018-04-16T09:52:58Z</time>
      </trkpt>
      <trkpt lat="43.53703" lon="5.33782">
        <ele>165.15</ele>
        <time>2018-04-16T09:53:28Z</time>
      </trkpt>
      <trkpt lat="43.53686" lon="5.33775">
        <ele>165.12</ele>
        <time>2018-04-16T09:53:47Z</time>
      </trkpt>
      <trkpt lat="43.53677" lon="5.3377">
        <ele>164.67</ele>
        <time>2018-04-16T09:54:02Z</time>
      </trkpt>
      <trkpt lat="43.53655" lon="5.3376">
        <ele>164.46</ele>
        <time>2018-04-16T09:54:23Z</time>
      </trkpt>
      <trkpt lat="43.53638" lon="5.33752">
        <ele>164.44</ele>
        <time>2018-04-16T09:54:39Z</time>
      </trkpt>
      <trkpt lat="43.53634" lon="5.3375">
        <ele>164.39</ele>
        <time>2018-04-16T09:54:54Z</time>
      </trkpt>
      <trkpt lat="43.53635" lon="5.33753">
        <ele>164.68</ele>
        <time>2018-04-16T09:55:12Z</time>
      </trkpt>
      <trkpt lat="43.53629" lon="5.33751">
        <ele>164.73</ele>
        <time>2018-04-16T09:55:37Z</time>
      </trkpt>
      <trkpt lat="43.53627" lon="5.33749">
        <ele>164.7</ele>
        <time>2018-04-16T09:55:39Z</time>
      </trkpt>
      <trkpt lat="43.53608" lon="5.33735">
        <ele>164.33</ele>
        <time>2018-04-16T09:55:59Z</time>
      </trkpt>
      <trkpt lat="43.53593" lon="5.33725">
        <ele>164.81</ele>
        <time>2018-04-16T09:56:15Z</time>
      </trkpt>
      <trkpt lat="43.53576" lon="5.33722">
        <ele>164.62</ele>
        <time>2018-04-16T09:56:31Z</time>
      </trkpt>
      <trkpt lat="43.53551" lon="5.33724">
        <ele>164.87</ele>
        <time>2018-04-16T09:56:51Z</time>
      </trkpt>
      <trkpt lat="43.53527" lon="5.33717">
        <ele>164.46</ele>
        <time>2018-04-16T09:57:12Z</time>
      </trkpt>
      <trkpt lat="43.53512" lon="5.33701">
        <ele>164.77</ele>
        <time>2018-04-16T09:57:28Z</time>
      </trkpt>
      <trkpt lat="43.53491" lon="5.33685">
        <ele>164.69</ele>
        <time>2018-04-16T09:57:49Z</time>
      </trkpt>
      <trkpt lat="43.53469" lon="5.33685">
        <ele>164.6</ele>
        <time>2018-04-16T09:58:08Z</time>
      </trkpt>
      <trkpt lat="43.53451" lon="5.33695">
        <ele>164.63</ele>
        <time>2018-04-16T09:58:25Z</time>
      </trkpt>
      <trkpt lat="43.53428" lon="5.33698">
        <ele>164.26</ele>
        <time>2018-04-16T09:58:42Z</time>
      </trkpt>
      <trkpt lat="43.53405" lon="5.33694">
        <ele>163.88</ele>
        <time>2018-04-16T09:59:00Z</time>
      </trkpt>
      <trkpt lat="43.5338" lon="5.33683">
        <ele>163.69</ele>
        <time>2018-04-16T09:59:21Z</time>
      </trkpt>
      <trkpt lat="43.53359" lon="5.33675">
        <ele>163.95</ele>
        <time>2018-04-16T09:59:39Z</time>
      </trkpt>
      <trkpt lat="43.53337" lon="5.33663">
        <ele>164.12</ele>
        <time>2018-04-16T09:59:59Z</time>
      </trkpt>
      <trkpt lat="43.53324" lon="5.33655">
        <ele>163.97</ele>
        <time>2018-04-16T10:00:10Z</time>
      </trkpt>
      <trkpt lat="43.53314" lon="5.33649">
        <ele>164.03</ele>
        <time>2018-04-16T10:00:21Z</time>
      </trkpt>
      <trkpt lat="43.53298" lon="5.33637">
        <ele>163.77</ele>
        <time>2018-04-16T10:00:40Z</time>
      </trkpt>
      <trkpt lat="43.53293" lon="5.33634">
        <ele>163.69</ele>
        <time>2018-04-16T10:00:44Z</time>
      </trkpt>
      <trkpt lat="43.53277" lon="5.33618">
        <ele>163.62</ele>
        <time>2018-04-16T10:01:00Z</time>
      </trkpt>
      <trkpt lat="43.53261" lon="5.33599">
        <ele>163.47</ele>
        <time>2018-04-16T10:01:17Z</time>
      </trkpt>
      <trkpt lat="43.53251" lon="5.33574">
        <ele>163.73</ele>
        <time>2018-04-16T10:01:34Z</time>
      </trkpt>
      <trkpt lat="43.53247" lon="5.33557">
        <ele>163.64</ele>
        <time>2018-04-16T10:01:51Z</time>
      </trkpt>
      <trkpt lat="43.53244" lon="5.33541">
        <ele>163.8</ele>
        <time>2018-04-16T10:02:12Z</time>
      </trkpt>
      <trkpt lat="43.53243" lon="5.3354">
        <ele>163.8</ele>
        <time>2018-04-16T10:02:13Z</time>
      </trkpt>
      <trkpt lat="43.53235" lon="5.33515">
        <ele>163.43</ele>
        <time>2018-04-16T10:02:30Z</time>
      </trkpt>
      <trkpt lat="43.53221" lon="5.33488">
        <ele>163.27</ele>
        <time>2018-04-16T10:02:50Z</time>
      </trkpt>
      <trkpt lat="43.53213" lon="5.33465">
        <ele>163.35</ele>
        <time>2018-04-16T10:03:05Z</time>
      </trkpt>
      <trkpt lat="43.53216" lon="5.33436">
        <ele>163.41</ele>
        <time>2018-04-16T10:03:23Z</time>
      </trkpt>
      <trkpt lat="43.53221" lon="5.33407">
        <ele>163.26</ele>
        <time>2018-04-16T10:03:41Z</time>
      </trkpt>
      <trkpt lat="43.53219" lon="5.3338">
        <ele>164.01</ele>
        <time>2018-04-16T10:03:59Z</time>
      </trkpt>
      <trkpt lat="43.5321" lon="5.33363">
        <ele>163.71</ele>
        <time>2018-04-16T10:04:12Z</time>
      </trkpt>
      <trkpt lat="43.53202" lon="5.33349">
        <ele>163.44</ele>
        <time>2018-04-16T10:04:23Z</time>
      </trkpt>
      <trkpt lat="43.53199" lon="5.33346">
        <ele>163.39</ele>
        <time>2018-04-16T10:04:26Z</time>
      </trkpt>
      <trkpt lat="43.53201" lon="5.33329">
        <ele>163.72</ele>
        <time>2018-04-16T10:04:35Z</time>
      </trkpt>
      <trkpt lat="43.53199" lon="5.33319">
        <ele>163.55</ele>
        <time>2018-04-16T10:04:41Z</time>
      </trkpt>
      <trkpt lat="43.53194" lon="5.33306">
        <ele>163.7</ele>
        <time>2018-04-16T10:04:52Z</time>
      </trkpt>
      <trkpt lat="43.53174" lon="5.33291">
        <ele>163.72</ele>
        <time>2018-04-16T10:05:11Z</time>
      </trkpt>
      <trkpt lat="43.53159" lon="5.33285">
        <ele>163.71</ele>
        <time>2018-04-16T10:05:27Z</time>
      </trkpt>
      <trkpt lat="43.53155" lon="5.33284">
        <ele>163.62</ele>
        <time>2018-04-16T10:05:33Z</time>
      </trkpt>
      <trkpt lat="43.53141" lon="5.33278">
        <ele>163.66</ele>
        <time>2018-04-16T10:05:44Z</time>
      </trkpt>
      <trkpt lat="43.53127" lon="5.33259">
        <ele>164.14</ele>
        <time>2018-04-16T10:06:01Z</time>
      </trkpt>
      <trkpt lat="43.5312" lon="5.33244">
        <ele>164.68</ele>
        <time>2018-04-16T10:06:12Z</time>
      </trkpt>
      <trkpt lat="43.53109" lon="5.33231">
        <ele>165.02</ele>
        <time>2018-04-16T10:06:29Z</time>
      </trkpt>
      <trkpt lat="43.531" lon="5.33225">
        <ele>165.35</ele>
        <time>2018-04-16T10:06:50Z</time>
      </trkpt>
      <trkpt lat="43.53098" lon="5.33224">
        <ele>165.39</ele>
        <time>2018-04-16T10:06:56Z</time>
      </trkpt>
      <trkpt lat="43.53095" lon="5.33222">
        <ele>165.3</ele>
        <time>2018-04-16T10:06:59Z</time>
      </trkpt>
      <trkpt lat="43.53092" lon="5.33218">
        <ele>165.15</ele>
        <time>2018-04-16T10:07:03Z</time>
      </trkpt>
      <trkpt lat="43.53075" lon="5.33202">
        <ele>165.38</ele>
        <time>2018-04-16T10:07:19Z</time>
      </trkpt>
      <trkpt lat="43.5306" lon="5.33187">
        <ele>165.59</ele>
        <time>2018-04-16T10:07:34Z</time>
      </trkpt>
      <trkpt lat="43.53045" lon="5.33175">
        <ele>165.91</ele>
        <time>2018-04-16T10:07:49Z</time>
      </trkpt>
      <trkpt lat="43.53024" lon="5.33155">
        <ele>166.04</ele>
        <time>2018-04-16T10:08:10Z</time>
      </trkpt>
      <trkpt lat="43.53022" lon="5.33154">
        <ele>166</ele>
        <time>2018-04-16T10:08:12Z</time>
      </trkpt>
      <trkpt lat="43.53009" lon="5.33141">
        <ele>165.31</ele>
        <time>2018-04-16T10:08:27Z</time>
      </trkpt>
      <trkpt lat="43.53001" lon="5.33132">
        <ele>164.73</ele>
        <time>2018-04-16T10:08:42Z</time>
      </trkpt>
      <trkpt lat="43.52996" lon="5.33128">
        <ele>165.16</ele>
        <time>2018-04-16T10:09:01Z</time>
      </trkpt>
      <trkpt lat="43.52982" lon="5.33119">
        <ele>166.7</ele>
        <time>2018-04-16T10:09:22Z</time>
      </trkpt>
      <trkpt lat="43.52959" lon="5.33108">
        <ele>169.78</ele>
        <time>2018-04-16T10:09:47Z</time>
      </trkpt>
      <trkpt lat="43.52953" lon="5.33108">
        <ele>170.28</ele>
        <time>2018-04-16T10:10:04Z</time>
      </trkpt>
      <trkpt lat="43.5295" lon="5.33103">
        <ele>170.73</ele>
        <time>2018-04-16T10:10:29Z</time>
      </trkpt>
      <trkpt lat="43.5295" lon="5.33102">
        <ele>170.75</ele>
        <time>2018-04-16T10:11:00Z</time>
      </trkpt>
      <trkpt lat="43.52953" lon="5.33103">
        <ele>170.67</ele>
        <time>2018-04-16T10:11:31Z</time>
      </trkpt>
      <trkpt lat="43.52953" lon="5.33104">
        <ele>170.4</ele>
        <time>2018-04-16T10:12:01Z</time>
      </trkpt>
      <trkpt lat="43.52953" lon="5.33107">
        <ele>170.68</ele>
        <time>2018-04-16T10:12:33Z</time>
      </trkpt>
      <trkpt lat="43.52947" lon="5.33103">
        <ele>170.91</ele>
        <time>2018-04-16T10:12:55Z</time>
      </trkpt>
      <trkpt lat="43.52946" lon="5.33102">
        <ele>170.95</ele>
        <time>2018-04-16T10:12:56Z</time>
      </trkpt>
      <trkpt lat="43.52929" lon="5.33088">
        <ele>172.58</ele>
        <time>2018-04-16T10:13:14Z</time>
      </trkpt>
      <trkpt lat="43.52919" lon="5.3308">
        <ele>173.38</ele>
        <time>2018-04-16T10:13:28Z</time>
      </trkpt>
      <trkpt lat="43.52908" lon="5.33067">
        <ele>174.39</ele>
        <time>2018-04-16T10:13:47Z</time>
      </trkpt>
      <trkpt lat="43.52889" lon="5.33048">
        <ele>174.06</ele>
        <time>2018-04-16T10:14:08Z</time>
      </trkpt>
      <trkpt lat="43.52876" lon="5.33031">
        <ele>173.78</ele>
        <time>2018-04-16T10:14:24Z</time>
      </trkpt>
      <trkpt lat="43.52869" lon="5.33009">
        <ele>172.82</ele>
        <time>2018-04-16T10:14:40Z</time>
      </trkpt>
      <trkpt lat="43.52869" lon="5.32977">
        <ele>170.91</ele>
        <time>2018-04-16T10:15:00Z</time>
      </trkpt>
      <trkpt lat="43.5287" lon="5.32946">
        <ele>170.88</ele>
        <time>2018-04-16T10:15:19Z</time>
      </trkpt>
      <trkpt lat="43.52871" lon="5.32924">
        <ele>170.19</ele>
        <time>2018-04-16T10:15:35Z</time>
      </trkpt>
      <trkpt lat="43.52868" lon="5.32893">
        <ele>168.85</ele>
        <time>2018-04-16T10:15:54Z</time>
      </trkpt>
      <trkpt lat="43.5287" lon="5.32866">
        <ele>166.33</ele>
        <time>2018-04-16T10:16:13Z</time>
      </trkpt>
      <trkpt lat="43.52875" lon="5.32843">
        <ele>163.39</ele>
        <time>2018-04-16T10:16:32Z</time>
      </trkpt>
      <trkpt lat="43.52877" lon="5.32827">
        <ele>162.52</ele>
        <time>2018-04-16T10:16:47Z</time>
      </trkpt>
      <trkpt lat="43.52873" lon="5.32822">
        <ele>162.64</ele>
        <time>2018-04-16T10:17:12Z</time>
      </trkpt>
      <trkpt lat="43.52871" lon="5.32815">
        <ele>162.48</ele>
        <time>2018-04-16T10:17:29Z</time>
      </trkpt>
      <trkpt lat="43.52866" lon="5.32805">
        <ele>164.08</ele>
        <time>2018-04-16T10:17:46Z</time>
      </trkpt>
      <trkpt lat="43.52862" lon="5.32796">
        <ele>164.53</ele>
        <time>2018-04-16T10:17:57Z</time>
      </trkpt>
      <trkpt lat="43.52864" lon="5.32783">
        <ele>165.99</ele>
        <time>2018-04-16T10:18:13Z</time>
      </trkpt>
      <trkpt lat="43.52865" lon="5.32783">
        <ele>166.24</ele>
        <time>2018-04-16T10:18:42Z</time>
      </trkpt>
      <trkpt lat="43.52864" lon="5.32783">
        <ele>166.41</ele>
        <time>2018-04-16T10:19:18Z</time>
      </trkpt>
      <trkpt lat="43.52864" lon="5.32782">
        <ele>165.84</ele>
        <time>2018-04-16T10:19:51Z</time>
      </trkpt>
      <trkpt lat="43.52865" lon="5.32785">
        <ele>166.16</ele>
        <time>2018-04-16T10:20:22Z</time>
      </trkpt>
      <trkpt lat="43.5287" lon="5.32774">
        <ele>166.31</ele>
        <time>2018-04-16T10:20:47Z</time>
      </trkpt>
      <trkpt lat="43.52878" lon="5.3275">
        <ele>166.99</ele>
        <time>2018-04-16T10:21:05Z</time>
      </trkpt>
      <trkpt lat="43.52878" lon="5.32732">
        <ele>167.46</ele>
        <time>2018-04-16T10:21:18Z</time>
      </trkpt>
      <trkpt lat="43.52875" lon="5.32726">
        <ele>167.82</ele>
        <time>2018-04-16T10:21:37Z</time>
      </trkpt>
      <trkpt lat="43.52864" lon="5.32706">
        <ele>167.81</ele>
        <time>2018-04-16T10:21:57Z</time>
      </trkpt>
      <trkpt lat="43.52859" lon="5.32696">
        <ele>167.02</ele>
        <time>2018-04-16T10:22:16Z</time>
      </trkpt>
      <trkpt lat="43.52856" lon="5.32692">
        <ele>166.79</ele>
        <time>2018-04-16T10:22:29Z</time>
      </trkpt>
      <trkpt lat="43.52853" lon="5.3269">
        <ele>166.65</ele>
        <time>2018-04-16T10:22:32Z</time>
      </trkpt>
      <trkpt lat="43.52851" lon="5.32688">
        <ele>166.5</ele>
        <time>2018-04-16T10:22:34Z</time>
      </trkpt>
      <trkpt lat="43.52846" lon="5.32687">
        <ele>166.12</ele>
        <time>2018-04-16T10:22:39Z</time>
      </trkpt>
      <trkpt lat="43.52826" lon="5.32684">
        <ele>166.55</ele>
        <time>2018-04-16T10:22:56Z</time>
      </trkpt>
      <trkpt lat="43.52808" lon="5.3267">
        <ele>165.42</ele>
        <time>2018-04-16T10:23:13Z</time>
      </trkpt>
      <trkpt lat="43.52792" lon="5.32659">
        <ele>164.55</ele>
        <time>2018-04-16T10:23:28Z</time>
      </trkpt>
      <trkpt lat="43.52775" lon="5.32645">
        <ele>164.94</ele>
        <time>2018-04-16T10:23:44Z</time>
      </trkpt>
      <trkpt lat="43.52766" lon="5.32625">
        <ele>164.18</ele>
        <time>2018-04-16T10:23:59Z</time>
      </trkpt>
      <trkpt lat="43.52761" lon="5.32604">
        <ele>163.32</ele>
        <time>2018-04-16T10:24:13Z</time>
      </trkpt>
      <trkpt lat="43.52757" lon="5.32574">
        <ele>163.7</ele>
        <time>2018-04-16T10:24:31Z</time>
      </trkpt>
      <trkpt lat="43.52758" lon="5.32551">
        <ele>164.05</ele>
        <time>2018-04-16T10:24:45Z</time>
      </trkpt>
      <trkpt lat="43.52758" lon="5.32525">
        <ele>162.92</ele>
        <time>2018-04-16T10:25:00Z</time>
      </trkpt>
      <trkpt lat="43.52756" lon="5.32499">
        <ele>162.52</ele>
        <time>2018-04-16T10:25:16Z</time>
      </trkpt>
      <trkpt lat="43.52752" lon="5.32471">
        <ele>163.5</ele>
        <time>2018-04-16T10:25:33Z</time>
      </trkpt>
      <trkpt lat="43.52747" lon="5.32445">
        <ele>162.77</ele>
        <time>2018-04-16T10:25:51Z</time>
      </trkpt>
      <trkpt lat="43.52747" lon="5.32426">
        <ele>161.29</ele>
        <time>2018-04-16T10:26:05Z</time>
      </trkpt>
      <trkpt lat="43.52742" lon="5.32403">
        <ele>158.35</ele>
        <time>2018-04-16T10:26:21Z</time>
      </trkpt>
      <trkpt lat="43.52731" lon="5.32394">
        <ele>158.02</ele>
        <time>2018-04-16T10:26:38Z</time>
      </trkpt>
      <trkpt lat="43.52723" lon="5.32392">
        <ele>158.86</ele>
        <time>2018-04-16T10:26:46Z</time>
      </trkpt>
      <trkpt lat="43.5271" lon="5.32386">
        <ele>160.66</ele>
        <time>2018-04-16T10:26:59Z</time>
      </trkpt>
      <trkpt lat="43.52699" lon="5.3237">
        <ele>163.24</ele>
        <time>2018-04-16T10:27:16Z</time>
      </trkpt>
      <trkpt lat="43.52692" lon="5.3235">
        <ele>164.95</ele>
        <time>2018-04-16T10:27:31Z</time>
      </trkpt>
      <trkpt lat="43.52685" lon="5.32338">
        <ele>165.9</ele>
        <time>2018-04-16T10:27:47Z</time>
      </trkpt>
      <trkpt lat="43.52679" lon="5.32326">
        <ele>165.39</ele>
        <time>2018-04-16T10:28:01Z</time>
      </trkpt>
      <trkpt lat="43.52672" lon="5.32314">
        <ele>165.09</ele>
        <time>2018-04-16T10:28:11Z</time>
      </trkpt>
      <trkpt lat="43.52665" lon="5.32293">
        <ele>164.67</ele>
        <time>2018-04-16T10:28:27Z</time>
      </trkpt>
      <trkpt lat="43.52663" lon="5.32272">
        <ele>164.45</ele>
        <time>2018-04-16T10:28:42Z</time>
      </trkpt>
      <trkpt lat="43.52662" lon="5.32267">
        <ele>164.41</ele>
        <time>2018-04-16T10:28:53Z</time>
      </trkpt>
      <trkpt lat="43.52659" lon="5.32255">
        <ele>164.11</ele>
        <time>2018-04-16T10:29:03Z</time>
      </trkpt>
      <trkpt lat="43.52655" lon="5.32248">
        <ele>163.75</ele>
        <time>2018-04-16T10:29:10Z</time>
      </trkpt>
      <trkpt lat="43.52651" lon="5.32245">
        <ele>163.54</ele>
        <time>2018-04-16T10:29:14Z</time>
      </trkpt>
      <trkpt lat="43.52642" lon="5.32254">
        <ele>162.54</ele>
        <time>2018-04-16T10:29:27Z</time>
      </trkpt>
      <trkpt lat="43.52642" lon="5.32263">
        <ele>162.39</ele>
        <time>2018-04-16T10:29:46Z</time>
      </trkpt>
      <trkpt lat="43.52642" lon="5.32263">
        <ele>162.38</ele>
        <time>2018-04-16T10:29:47Z</time>
      </trkpt>
      <trkpt lat="43.52638" lon="5.32245">
        <ele>162.34</ele>
        <time>2018-04-16T10:30:06Z</time>
      </trkpt>
      <trkpt lat="43.52641" lon="5.32247">
        <ele>162.34</ele>
        <time>2018-04-16T10:30:13Z</time>
      </trkpt>
      <trkpt lat="43.52647" lon="5.32237">
        <ele>162.18</ele>
        <time>2018-04-16T10:30:26Z</time>
      </trkpt>
      <trkpt lat="43.52646" lon="5.32235">
        <ele>162.16</ele>
        <time>2018-04-16T10:30:28Z</time>
      </trkpt>
      <trkpt lat="43.52644" lon="5.32233">
        <ele>162.19</ele>
        <time>2018-04-16T10:30:30Z</time>
      </trkpt>
      <trkpt lat="43.52633" lon="5.32214">
        <ele>164.1</ele>
        <time>2018-04-16T10:30:48Z</time>
      </trkpt>
      <trkpt lat="43.52632" lon="5.32199">
        <ele>165.98</ele>
        <time>2018-04-16T10:31:00Z</time>
      </trkpt>
      <trkpt lat="43.52635" lon="5.32193">
        <ele>166.8</ele>
        <time>2018-04-16T10:31:06Z</time>
      </trkpt>
      <trkpt lat="43.52644" lon="5.32181">
        <ele>168.64</ele>
        <time>2018-04-16T10:31:20Z</time>
      </trkpt>
      <trkpt lat="43.52655" lon="5.32167">
        <ele>170.63</ele>
        <time>2018-04-16T10:31:36Z</time>
      </trkpt>
      <trkpt lat="43.5266" lon="5.32157">
        <ele>173.29</ele>
        <time>2018-04-16T10:31:55Z</time>
      </trkpt>
      <trkpt lat="43.52659" lon="5.32148">
        <ele>174.25</ele>
        <time>2018-04-16T10:32:18Z</time>
      </trkpt>
      <trkpt lat="43.52658" lon="5.3215">
        <ele>174.75</ele>
        <time>2018-04-16T10:32:50Z</time>
      </trkpt>
      <trkpt lat="43.52655" lon="5.32147">
        <ele>175.68</ele>
        <time>2018-04-16T10:33:14Z</time>
      </trkpt>
      <trkpt lat="43.52656" lon="5.32141">
        <ele>175.16</ele>
        <time>2018-04-16T10:33:49Z</time>
      </trkpt>
      <trkpt lat="43.52657" lon="5.3214">
        <ele>174.83</ele>
        <time>2018-04-16T10:34:03Z</time>
      </trkpt>
      <trkpt lat="43.5265" lon="5.32142">
        <ele>175.07</ele>
        <time>2018-04-16T10:34:28Z</time>
      </trkpt>
      <trkpt lat="43.52654" lon="5.32144">
        <ele>174.67</ele>
        <time>2018-04-16T10:34:42Z</time>
      </trkpt>
      <trkpt lat="43.52652" lon="5.32144">
        <ele>175.34</ele>
        <time>2018-04-16T10:35:02Z</time>
      </trkpt>
      <trkpt lat="43.52653" lon="5.32144">
        <ele>175.32</ele>
        <time>2018-04-16T10:35:18Z</time>
      </trkpt>
      <trkpt lat="43.52638" lon="5.32147">
        <ele>176.05</ele>
        <time>2018-04-16T10:35:39Z</time>
      </trkpt>
      <trkpt lat="43.52633" lon="5.3215">
        <ele>176.21</ele>
        <time>2018-04-16T10:36:02Z</time>
      </trkpt>
      <trkpt lat="43.52635" lon="5.32152">
        <ele>176.32</ele>
        <time>2018-04-16T10:36:24Z</time>
      </trkpt>
      <trkpt lat="43.52637" lon="5.32152">
        <ele>175.96</ele>
        <time>2018-04-16T10:36:43Z</time>
      </trkpt>
      <trkpt lat="43.52628" lon="5.32146">
        <ele>176.02</ele>
        <time>2018-04-16T10:37:03Z</time>
      </trkpt>
      <trkpt lat="43.52628" lon="5.32145">
        <ele>175.83</ele>
        <time>2018-04-16T10:37:30Z</time>
      </trkpt>
      <trkpt lat="43.52623" lon="5.32145">
        <ele>175.88</ele>
        <time>2018-04-16T10:37:57Z</time>
      </trkpt>
      <trkpt lat="43.52625" lon="5.32142">
        <ele>176.1</ele>
        <time>2018-04-16T10:38:20Z</time>
      </trkpt>
      <trkpt lat="43.5263" lon="5.32144">
        <ele>175.84</ele>
        <time>2018-04-16T10:38:47Z</time>
      </trkpt>
      <trkpt lat="43.52621" lon="5.32139">
        <ele>175.6</ele>
        <time>2018-04-16T10:39:19Z</time>
      </trkpt>
      <trkpt lat="43.52615" lon="5.32137">
        <ele>175.05</ele>
        <time>2018-04-16T10:39:40Z</time>
      </trkpt>
      <trkpt lat="43.5261" lon="5.32132">
        <ele>174.77</ele>
        <time>2018-04-16T10:40:03Z</time>
      </trkpt>
      <trkpt lat="43.52603" lon="5.32127">
        <ele>174.42</ele>
        <time>2018-04-16T10:40:12Z</time>
      </trkpt>
      <trkpt lat="43.5259" lon="5.32119">
        <ele>173.38</ele>
        <time>2018-04-16T10:40:24Z</time>
      </trkpt>
      <trkpt lat="43.52579" lon="5.32109">
        <ele>172.44</ele>
        <time>2018-04-16T10:40:37Z</time>
      </trkpt>
      <trkpt lat="43.52564" lon="5.32099">
        <ele>172.07</ele>
        <time>2018-04-16T10:40:50Z</time>
      </trkpt>
      <trkpt lat="43.52563" lon="5.32098">
        <ele>172.02</ele>
        <time>2018-04-16T10:40:52Z</time>
      </trkpt>
      <trkpt lat="43.52549" lon="5.32082">
        <ele>171.19</ele>
        <time>2018-04-16T10:41:08Z</time>
      </trkpt>
      <trkpt lat="43.52543" lon="5.32071">
        <ele>170.72</ele>
        <time>2018-04-16T10:41:23Z</time>
      </trkpt>
      <trkpt lat="43.52538" lon="5.32075">
        <ele>170.6</ele>
        <time>2018-04-16T10:41:31Z</time>
      </trkpt>
      <trkpt lat="43.52525" lon="5.32096">
        <ele>169.66</ele>
        <time>2018-04-16T10:41:49Z</time>
      </trkpt>
      <trkpt lat="43.52514" lon="5.3211">
        <ele>168.96</ele>
        <time>2018-04-16T10:42:01Z</time>
      </trkpt>
      <trkpt lat="43.5251" lon="5.32114">
        <ele>168.57</ele>
        <time>2018-04-16T10:42:05Z</time>
      </trkpt>
      <trkpt lat="43.52495" lon="5.32125">
        <ele>167.47</ele>
        <time>2018-04-16T10:42:20Z</time>
      </trkpt>
      <trkpt lat="43.52488" lon="5.32127">
        <ele>167.38</ele>
        <time>2018-04-16T10:42:26Z</time>
      </trkpt>
      <trkpt lat="43.52469" lon="5.32138">
        <ele>166.07</ele>
        <time>2018-04-16T10:42:43Z</time>
      </trkpt>
      <trkpt lat="43.52457" lon="5.32132">
        <ele>164.63</ele>
        <time>2018-04-16T10:42:59Z</time>
      </trkpt>
      <trkpt lat="43.52459" lon="5.32137">
        <ele>164.42</ele>
        <time>2018-04-16T10:43:15Z</time>
      </trkpt>
      <trkpt lat="43.52454" lon="5.32127">
        <ele>164.16</ele>
        <time>2018-04-16T10:43:33Z</time>
      </trkpt>
      <trkpt lat="43.52457" lon="5.32128">
        <ele>164.2</ele>
        <time>2018-04-16T10:43:49Z</time>
      </trkpt>
      <trkpt lat="43.5246" lon="5.32131">
        <ele>163.81</ele>
        <time>2018-04-16T10:44:12Z</time>
      </trkpt>
      <trkpt lat="43.52461" lon="5.32138">
        <ele>164.11</ele>
        <time>2018-04-16T10:44:31Z</time>
      </trkpt>
      <trkpt lat="43.52459" lon="5.32138">
        <ele>163.75</ele>
        <time>2018-04-16T10:44:54Z</time>
      </trkpt>
      <trkpt lat="43.52459" lon="5.32137">
        <ele>164</ele>
        <time>2018-04-16T10:45:16Z</time>
      </trkpt>
      <trkpt lat="43.52465" lon="5.32141">
        <ele>163.99</ele>
        <time>2018-04-16T10:45:38Z</time>
      </trkpt>
      <trkpt lat="43.52461" lon="5.32139">
        <ele>163.96</ele>
        <time>2018-04-16T10:45:58Z</time>
      </trkpt>
      <trkpt lat="43.52458" lon="5.32135">
        <ele>163.9</ele>
        <time>2018-04-16T10:46:24Z</time>
      </trkpt>
      <trkpt lat="43.52459" lon="5.32136">
        <ele>163.52</ele>
        <time>2018-04-16T10:46:55Z</time>
      </trkpt>
      <trkpt lat="43.52458" lon="5.32135">
        <ele>164.38</ele>
        <time>2018-04-16T10:47:28Z</time>
      </trkpt>
      <trkpt lat="43.52457" lon="5.32135">
        <ele>163.83</ele>
        <time>2018-04-16T10:47:49Z</time>
      </trkpt>
      <trkpt lat="43.52459" lon="5.32135">
        <ele>164.35</ele>
        <time>2018-04-16T10:48:08Z</time>
      </trkpt>
      <trkpt lat="43.52453" lon="5.32132">
        <ele>163.87</ele>
        <time>2018-04-16T10:48:31Z</time>
      </trkpt>
      <trkpt lat="43.52451" lon="5.32129">
        <ele>163.76</ele>
        <time>2018-04-16T10:48:42Z</time>
      </trkpt>
      <trkpt lat="43.5246" lon="5.32136">
        <ele>164.04</ele>
        <time>2018-04-16T10:49:09Z</time>
      </trkpt>
      <trkpt lat="43.52459" lon="5.32136">
        <ele>163.7</ele>
        <time>2018-04-16T10:49:37Z</time>
      </trkpt>
      <trkpt lat="43.52455" lon="5.32132">
        <ele>163.85</ele>
        <time>2018-04-16T10:50:01Z</time>
      </trkpt>
      <trkpt lat="43.52457" lon="5.32135">
        <ele>163.49</ele>
        <time>2018-04-16T10:50:23Z</time>
      </trkpt>
      <trkpt lat="43.52463" lon="5.32133">
        <ele>163.75</ele>
        <time>2018-04-16T10:50:47Z</time>
      </trkpt>
      <trkpt lat="43.52465" lon="5.32134">
        <ele>163.69</ele>
        <time>2018-04-16T10:51:07Z</time>
      </trkpt>
      <trkpt lat="43.52463" lon="5.32132">
        <ele>163.73</ele>
        <time>2018-04-16T10:51:23Z</time>
      </trkpt>
      <trkpt lat="43.52462" lon="5.32132">
        <ele>163.99</ele>
        <time>2018-04-16T10:51:47Z</time>
      </trkpt>
      <trkpt lat="43.52462" lon="5.32133">
        <ele>164.1</ele>
        <time>2018-04-16T10:52:13Z</time>
      </trkpt>
      <trkpt lat="43.52464" lon="5.32135">
        <ele>169.99</ele>
        <time>2018-04-16T10:52:25Z</time>
      </trkpt>
      <trkpt lat="43.52459" lon="5.32136">
        <ele>168.67</ele>
        <time>2018-04-16T11:54:54Z</time>
      </trkpt>
      <trkpt lat="43.52465" lon="5.32135">
        <ele>168.6</ele>
        <time>2018-04-16T11:55:26Z</time>
      </trkpt>
      <trkpt lat="43.52462" lon="5.32134">
        <ele>168.78</ele>
        <time>2018-04-16T11:56:00Z</time>
      </trkpt>
      <trkpt lat="43.5246" lon="5.32135">
        <ele>168.72</ele>
        <time>2018-04-16T11:56:33Z</time>
      </trkpt>
      <trkpt lat="43.52459" lon="5.32134">
        <ele>168.73</ele>
        <time>2018-04-16T11:56:59Z</time>
      </trkpt>
      <trkpt lat="43.52468" lon="5.3214">
        <ele>168.86</ele>
        <time>2018-04-16T11:57:18Z</time>
      </trkpt>
      <trkpt lat="43.5248" lon="5.32134">
        <ele>169.8</ele>
        <time>2018-04-16T11:57:34Z</time>
      </trkpt>
      <trkpt lat="43.52487" lon="5.32128">
        <ele>170.6</ele>
        <time>2018-04-16T11:57:42Z</time>
      </trkpt>
      <trkpt lat="43.52501" lon="5.3212">
        <ele>171.51</ele>
        <time>2018-04-16T11:57:57Z</time>
      </trkpt>
      <trkpt lat="43.5251" lon="5.32115">
        <ele>172.13</ele>
        <time>2018-04-16T11:58:10Z</time>
      </trkpt>
      <trkpt lat="43.52515" lon="5.3211">
        <ele>172.36</ele>
        <time>2018-04-16T11:58:16Z</time>
      </trkpt>
      <trkpt lat="43.52517" lon="5.32108">
        <ele>172.39</ele>
        <time>2018-04-16T11:58:18Z</time>
      </trkpt>
      <trkpt lat="43.52529" lon="5.32093">
        <ele>173.56</ele>
        <time>2018-04-16T11:58:33Z</time>
      </trkpt>
      <trkpt lat="43.52541" lon="5.32076">
        <ele>174.17</ele>
        <time>2018-04-16T11:58:47Z</time>
      </trkpt>
      <trkpt lat="43.52542" lon="5.32067">
        <ele>174.81</ele>
        <time>2018-04-16T11:59:02Z</time>
      </trkpt>
      <trkpt lat="43.52532" lon="5.3205">
        <ele>174.37</ele>
        <time>2018-04-16T11:59:20Z</time>
      </trkpt>
      <trkpt lat="43.52529" lon="5.32044">
        <ele>173.93</ele>
        <time>2018-04-16T11:59:26Z</time>
      </trkpt>
      <trkpt lat="43.52521" lon="5.32026">
        <ele>173.15</ele>
        <time>2018-04-16T11:59:43Z</time>
      </trkpt>
      <trkpt lat="43.52512" lon="5.32008">
        <ele>171.83</ele>
        <time>2018-04-16T12:00:01Z</time>
      </trkpt>
      <trkpt lat="43.52505" lon="5.3199">
        <ele>171.24</ele>
        <time>2018-04-16T12:00:18Z</time>
      </trkpt>
      <trkpt lat="43.52497" lon="5.31967">
        <ele>169.78</ele>
        <time>2018-04-16T12:00:39Z</time>
      </trkpt>
      <trkpt lat="43.52489" lon="5.31946">
        <ele>169.57</ele>
        <time>2018-04-16T12:00:54Z</time>
      </trkpt>
      <trkpt lat="43.52475" lon="5.31923">
        <ele>168.98</ele>
        <time>2018-04-16T12:01:15Z</time>
      </trkpt>
      <trkpt lat="43.52461" lon="5.31902">
        <ele>168.26</ele>
        <time>2018-04-16T12:01:35Z</time>
      </trkpt>
      <trkpt lat="43.52451" lon="5.31883">
        <ele>167.45</ele>
        <time>2018-04-16T12:01:56Z</time>
      </trkpt>
      <trkpt lat="43.52436" lon="5.31859">
        <ele>167.31</ele>
        <time>2018-04-16T12:02:18Z</time>
      </trkpt>
      <trkpt lat="43.52433" lon="5.31842">
        <ele>167.12</ele>
        <time>2018-04-16T12:02:29Z</time>
      </trkpt>
      <trkpt lat="43.52432" lon="5.31836">
        <ele>166.97</ele>
        <time>2018-04-16T12:02:33Z</time>
      </trkpt>
      <trkpt lat="43.52431" lon="5.31816">
        <ele>166.39</ele>
        <time>2018-04-16T12:02:47Z</time>
      </trkpt>
      <trkpt lat="43.52429" lon="5.31812">
        <ele>166.03</ele>
        <time>2018-04-16T12:03:04Z</time>
      </trkpt>
      <trkpt lat="43.52423" lon="5.31833">
        <ele>166.11</ele>
        <time>2018-04-16T12:03:22Z</time>
      </trkpt>
      <trkpt lat="43.5242" lon="5.31833">
        <ele>165.82</ele>
        <time>2018-04-16T12:03:25Z</time>
      </trkpt>
      <trkpt lat="43.52417" lon="5.31833">
        <ele>165.58</ele>
        <time>2018-04-16T12:03:27Z</time>
      </trkpt>
      <trkpt lat="43.52405" lon="5.31827">
        <ele>163.8</ele>
        <time>2018-04-16T12:03:41Z</time>
      </trkpt>
      <trkpt lat="43.52403" lon="5.31821">
        <ele>163.66</ele>
        <time>2018-04-16T12:03:46Z</time>
      </trkpt>
      <trkpt lat="43.52393" lon="5.31798">
        <ele>163.91</ele>
        <time>2018-04-16T12:04:06Z</time>
      </trkpt>
      <trkpt lat="43.52381" lon="5.31777">
        <ele>163.37</ele>
        <time>2018-04-16T12:04:24Z</time>
      </trkpt>
      <trkpt lat="43.52368" lon="5.31755">
        <ele>163.65</ele>
        <time>2018-04-16T12:04:46Z</time>
      </trkpt>
      <trkpt lat="43.52358" lon="5.31732">
        <ele>163.96</ele>
        <time>2018-04-16T12:05:06Z</time>
      </trkpt>
      <trkpt lat="43.52345" lon="5.31719">
        <ele>164.68</ele>
        <time>2018-04-16T12:05:25Z</time>
      </trkpt>
      <trkpt lat="43.52336" lon="5.31722">
        <ele>164.28</ele>
        <time>2018-04-16T12:05:41Z</time>
      </trkpt>
      <trkpt lat="43.52332" lon="5.31719">
        <ele>164.43</ele>
        <time>2018-04-16T12:06:12Z</time>
      </trkpt>
      <trkpt lat="43.5233" lon="5.31718">
        <ele>164.07</ele>
        <time>2018-04-16T12:06:39Z</time>
      </trkpt>
      <trkpt lat="43.52318" lon="5.31711">
        <ele>166.16</ele>
        <time>2018-04-16T12:06:57Z</time>
      </trkpt>
      <trkpt lat="43.52307" lon="5.31706">
        <ele>167.47</ele>
        <time>2018-04-16T12:07:14Z</time>
      </trkpt>
      <trkpt lat="43.52297" lon="5.31706">
        <ele>167.34</ele>
        <time>2018-04-16T12:07:37Z</time>
      </trkpt>
      <trkpt lat="43.52292" lon="5.31712">
        <ele>167.12</ele>
        <time>2018-04-16T12:07:57Z</time>
      </trkpt>
      <trkpt lat="43.52297" lon="5.31706">
        <ele>166.93</ele>
        <time>2018-04-16T12:08:21Z</time>
      </trkpt>
      <trkpt lat="43.52297" lon="5.31705">
        <ele>167.49</ele>
        <time>2018-04-16T12:08:46Z</time>
      </trkpt>
      <trkpt lat="43.52301" lon="5.31708">
        <ele>167.34</ele>
        <time>2018-04-16T12:09:11Z</time>
      </trkpt>
      <trkpt lat="43.52286" lon="5.31713">
        <ele>167.13</ele>
        <time>2018-04-16T12:09:33Z</time>
      </trkpt>
      <trkpt lat="43.5228" lon="5.31715">
        <ele>166.87</ele>
        <time>2018-04-16T12:09:44Z</time>
      </trkpt>
      <trkpt lat="43.52271" lon="5.31715">
        <ele>166.3</ele>
        <time>2018-04-16T12:09:58Z</time>
      </trkpt>
      <trkpt lat="43.52259" lon="5.31712">
        <ele>164.54</ele>
        <time>2018-04-16T12:10:22Z</time>
      </trkpt>
      <trkpt lat="43.52245" lon="5.31699">
        <ele>163.98</ele>
        <time>2018-04-16T12:10:43Z</time>
      </trkpt>
      <trkpt lat="43.52231" lon="5.31687">
        <ele>163.57</ele>
        <time>2018-04-16T12:10:59Z</time>
      </trkpt>
      <trkpt lat="43.52216" lon="5.31677">
        <ele>163.89</ele>
        <time>2018-04-16T12:11:17Z</time>
      </trkpt>
      <trkpt lat="43.52205" lon="5.31673">
        <ele>163.94</ele>
        <time>2018-04-16T12:11:27Z</time>
      </trkpt>
      <trkpt lat="43.52185" lon="5.31677">
        <ele>163.6</ele>
        <time>2018-04-16T12:11:45Z</time>
      </trkpt>
      <trkpt lat="43.52181" lon="5.31678">
        <ele>163.78</ele>
        <time>2018-04-16T12:11:49Z</time>
      </trkpt>
      <trkpt lat="43.52169" lon="5.31681">
        <ele>163.58</ele>
        <time>2018-04-16T12:12:00Z</time>
      </trkpt>
      <trkpt lat="43.52162" lon="5.31683">
        <ele>163.89</ele>
        <time>2018-04-16T12:12:09Z</time>
      </trkpt>
      <trkpt lat="43.52159" lon="5.31683">
        <ele>163.8</ele>
        <time>2018-04-16T12:12:12Z</time>
      </trkpt>
      <trkpt lat="43.52155" lon="5.31684">
        <ele>163.76</ele>
        <time>2018-04-16T12:12:16Z</time>
      </trkpt>
      <trkpt lat="43.52149" lon="5.31681">
        <ele>163.81</ele>
        <time>2018-04-16T12:12:22Z</time>
      </trkpt>
      <trkpt lat="43.52136" lon="5.31667">
        <ele>163.44</ele>
        <time>2018-04-16T12:12:38Z</time>
      </trkpt>
      <trkpt lat="43.52131" lon="5.31647">
        <ele>163.52</ele>
        <time>2018-04-16T12:12:54Z</time>
      </trkpt>
      <trkpt lat="43.52134" lon="5.31614">
        <ele>163.66</ele>
        <time>2018-04-16T12:13:18Z</time>
      </trkpt>
      <trkpt lat="43.52136" lon="5.31605">
        <ele>163.64</ele>
        <time>2018-04-16T12:13:25Z</time>
      </trkpt>
      <trkpt lat="43.52138" lon="5.31599">
        <ele>163.61</ele>
        <time>2018-04-16T12:13:29Z</time>
      </trkpt>
      <trkpt lat="43.52137" lon="5.31579">
        <ele>163.24</ele>
        <time>2018-04-16T12:13:48Z</time>
      </trkpt>
      <trkpt lat="43.52136" lon="5.31574">
        <ele>163.24</ele>
        <time>2018-04-16T12:13:53Z</time>
      </trkpt>
      <trkpt lat="43.52138" lon="5.31565">
        <ele>163.78</ele>
        <time>2018-04-16T12:14:09Z</time>
      </trkpt>
      <trkpt lat="43.52138" lon="5.31546">
        <ele>166.56</ele>
        <time>2018-04-16T12:14:28Z</time>
      </trkpt>
      <trkpt lat="43.52134" lon="5.31538">
        <ele>168.39</ele>
        <time>2018-04-16T12:14:47Z</time>
      </trkpt>
      <trkpt lat="43.52133" lon="5.31535">
        <ele>168.64</ele>
        <time>2018-04-16T12:15:10Z</time>
      </trkpt>
      <trkpt lat="43.52134" lon="5.31532">
        <ele>168.73</ele>
        <time>2018-04-16T12:15:23Z</time>
      </trkpt>
      <trkpt lat="43.52154" lon="5.31528">
        <ele>169.61</ele>
        <time>2018-04-16T12:15:41Z</time>
      </trkpt>
      <trkpt lat="43.52159" lon="5.31528">
        <ele>169.84</ele>
        <time>2018-04-16T12:15:46Z</time>
      </trkpt>
      <trkpt lat="43.52176" lon="5.3152">
        <ele>170.97</ele>
        <time>2018-04-16T12:16:04Z</time>
      </trkpt>
      <trkpt lat="43.52191" lon="5.31508">
        <ele>172.38</ele>
        <time>2018-04-16T12:16:21Z</time>
      </trkpt>
      <trkpt lat="43.52205" lon="5.31497">
        <ele>173.78</ele>
        <time>2018-04-16T12:16:36Z</time>
      </trkpt>
      <trkpt lat="43.5222" lon="5.31488">
        <ele>174.62</ele>
        <time>2018-04-16T12:16:51Z</time>
      </trkpt>
      <trkpt lat="43.52233" lon="5.31481">
        <ele>175.52</ele>
        <time>2018-04-16T12:17:04Z</time>
      </trkpt>
      <trkpt lat="43.52251" lon="5.31479">
        <ele>176.08</ele>
        <time>2018-04-16T12:17:20Z</time>
      </trkpt>
      <trkpt lat="43.52268" lon="5.31472">
        <ele>176.77</ele>
        <time>2018-04-16T12:17:36Z</time>
      </trkpt>
      <trkpt lat="43.52287" lon="5.31465">
        <ele>177.77</ele>
        <time>2018-04-16T12:17:53Z</time>
      </trkpt>
      <trkpt lat="43.52302" lon="5.3146">
        <ele>178.86</ele>
        <time>2018-04-16T12:18:09Z</time>
      </trkpt>
      <trkpt lat="43.52306" lon="5.31457">
        <ele>179.03</ele>
        <time>2018-04-16T12:18:13Z</time>
      </trkpt>
      <trkpt lat="43.5232" lon="5.31438">
        <ele>180.35</ele>
        <time>2018-04-16T12:18:32Z</time>
      </trkpt>
      <trkpt lat="43.52327" lon="5.31426">
        <ele>181.22</ele>
        <time>2018-04-16T12:18:42Z</time>
      </trkpt>
      <trkpt lat="43.52335" lon="5.3141">
        <ele>182.43</ele>
        <time>2018-04-16T12:18:55Z</time>
      </trkpt>
      <trkpt lat="43.5234" lon="5.31399">
        <ele>182.9</ele>
        <time>2018-04-16T12:19:05Z</time>
      </trkpt>
      <trkpt lat="43.52342" lon="5.31377">
        <ele>183.91</ele>
        <time>2018-04-16T12:19:20Z</time>
      </trkpt>
      <trkpt lat="43.52342" lon="5.31364">
        <ele>184.71</ele>
        <time>2018-04-16T12:19:37Z</time>
      </trkpt>
      <trkpt lat="43.52342" lon="5.31358">
        <ele>184.47</ele>
        <time>2018-04-16T12:19:55Z</time>
      </trkpt>
      <trkpt lat="43.52341" lon="5.31357">
        <ele>184.86</ele>
        <time>2018-04-16T12:20:26Z</time>
      </trkpt>
      <trkpt lat="43.52342" lon="5.31353">
        <ele>185.26</ele>
        <time>2018-04-16T12:20:59Z</time>
      </trkpt>
      <trkpt lat="43.52345" lon="5.31355">
        <ele>185.13</ele>
        <time>2018-04-16T12:21:25Z</time>
      </trkpt>
      <trkpt lat="43.52345" lon="5.31357">
        <ele>185.61</ele>
        <time>2018-04-16T12:22:00Z</time>
      </trkpt>
      <trkpt lat="43.52339" lon="5.31355">
        <ele>185.68</ele>
        <time>2018-04-16T12:22:34Z</time>
      </trkpt>
      <trkpt lat="43.52322" lon="5.31355">
        <ele>185.77</ele>
        <time>2018-04-16T12:22:55Z</time>
      </trkpt>
      <trkpt lat="43.52321" lon="5.31355">
        <ele>185.87</ele>
        <time>2018-04-16T12:22:56Z</time>
      </trkpt>
      <trkpt lat="43.52311" lon="5.31354">
        <ele>186.82</ele>
        <time>2018-04-16T12:23:07Z</time>
      </trkpt>
      <trkpt lat="43.52294" lon="5.3135">
        <ele>188.27</ele>
        <time>2018-04-16T12:23:27Z</time>
      </trkpt>
      <trkpt lat="43.5228" lon="5.3135">
        <ele>189.45</ele>
        <time>2018-04-16T12:23:44Z</time>
      </trkpt>
      <trkpt lat="43.5227" lon="5.31348">
        <ele>189.8</ele>
        <time>2018-04-16T12:24:07Z</time>
      </trkpt>
      <trkpt lat="43.52269" lon="5.31348">
        <ele>189.82</ele>
        <time>2018-04-16T12:24:08Z</time>
      </trkpt>
      <trkpt lat="43.52255" lon="5.31351">
        <ele>190.03</ele>
        <time>2018-04-16T12:24:31Z</time>
      </trkpt>
      <trkpt lat="43.52245" lon="5.31349">
        <ele>190.02</ele>
        <time>2018-04-16T12:24:48Z</time>
      </trkpt>
      <trkpt lat="43.52242" lon="5.31349">
        <ele>190.07</ele>
        <time>2018-04-16T12:24:50Z</time>
      </trkpt>
      <trkpt lat="43.52223" lon="5.31352">
        <ele>189.99</ele>
        <time>2018-04-16T12:25:08Z</time>
      </trkpt>
      <trkpt lat="43.52208" lon="5.31354">
        <ele>189.65</ele>
        <time>2018-04-16T12:25:22Z</time>
      </trkpt>
      <trkpt lat="43.522" lon="5.3136">
        <ele>189.55</ele>
        <time>2018-04-16T12:25:33Z</time>
      </trkpt>
      <trkpt lat="43.52192" lon="5.31364">
        <ele>189.37</ele>
        <time>2018-04-16T12:25:42Z</time>
      </trkpt>
      <trkpt lat="43.52184" lon="5.31363">
        <ele>189.15</ele>
        <time>2018-04-16T12:25:50Z</time>
      </trkpt>
      <trkpt lat="43.52171" lon="5.31359">
        <ele>188.37</ele>
        <time>2018-04-16T12:25:59Z</time>
      </trkpt>
      <trkpt lat="43.52157" lon="5.31358">
        <ele>187.35</ele>
        <time>2018-04-16T12:26:19Z</time>
      </trkpt>
      <trkpt lat="43.52145" lon="5.31364">
        <ele>187.02</ele>
        <time>2018-04-16T12:26:48Z</time>
      </trkpt>
      <trkpt lat="43.5212" lon="5.31376">
        <ele>186.31</ele>
        <time>2018-04-16T12:27:13Z</time>
      </trkpt>
      <trkpt lat="43.52092" lon="5.3137">
        <ele>185.14</ele>
        <time>2018-04-16T12:27:38Z</time>
      </trkpt>
      <trkpt lat="43.52074" lon="5.31365">
        <ele>184.54</ele>
        <time>2018-04-16T12:27:54Z</time>
      </trkpt>
      <trkpt lat="43.5206" lon="5.31368">
        <ele>184.82</ele>
        <time>2018-04-16T12:28:09Z</time>
      </trkpt>
      <trkpt lat="43.52055" lon="5.3137">
        <ele>184.66</ele>
        <time>2018-04-16T12:28:35Z</time>
      </trkpt>
      <trkpt lat="43.52055" lon="5.31369">
        <ele>184.82</ele>
        <time>2018-04-16T12:29:00Z</time>
      </trkpt>
      <trkpt lat="43.52047" lon="5.31368">
        <ele>184.84</ele>
        <time>2018-04-16T12:29:13Z</time>
      </trkpt>
      <trkpt lat="43.52023" lon="5.31378">
        <ele>184.45</ele>
        <time>2018-04-16T12:29:38Z</time>
      </trkpt>
      <trkpt lat="43.52017" lon="5.31382">
        <ele>184.48</ele>
        <time>2018-04-16T12:29:45Z</time>
      </trkpt>
      <trkpt lat="43.52007" lon="5.31395">
        <ele>184.91</ele>
        <time>2018-04-16T12:29:57Z</time>
      </trkpt>
      <trkpt lat="43.51996" lon="5.31399">
        <ele>184.95</ele>
        <time>2018-04-16T12:30:08Z</time>
      </trkpt>
      <trkpt lat="43.51985" lon="5.31392">
        <ele>184.57</ele>
        <time>2018-04-16T12:30:20Z</time>
      </trkpt>
      <trkpt lat="43.51971" lon="5.31382">
        <ele>184.11</ele>
        <time>2018-04-16T12:30:37Z</time>
      </trkpt>
      <trkpt lat="43.51962" lon="5.31367">
        <ele>183.9</ele>
        <time>2018-04-16T12:30:52Z</time>
      </trkpt>
      <trkpt lat="43.51959" lon="5.31362">
        <ele>183.96</ele>
        <time>2018-04-16T12:31:11Z</time>
      </trkpt>
      <trkpt lat="43.51961" lon="5.31364">
        <ele>184.07</ele>
        <time>2018-04-16T12:31:14Z</time>
      </trkpt>
      <trkpt lat="43.51968" lon="5.31383">
        <ele>184.43</ele>
        <time>2018-04-16T12:31:33Z</time>
      </trkpt>
      <trkpt lat="43.51965" lon="5.31406">
        <ele>184.61</ele>
        <time>2018-04-16T12:31:50Z</time>
      </trkpt>
      <trkpt lat="43.51965" lon="5.31412">
        <ele>184.66</ele>
        <time>2018-04-16T12:31:54Z</time>
      </trkpt>
      <trkpt lat="43.5195" lon="5.3143">
        <ele>184.39</ele>
        <time>2018-04-16T12:32:11Z</time>
      </trkpt>
      <trkpt lat="43.51937" lon="5.31438">
        <ele>184.7</ele>
        <time>2018-04-16T12:32:28Z</time>
      </trkpt>
      <trkpt lat="43.51924" lon="5.31442">
        <ele>184.65</ele>
        <time>2018-04-16T12:32:42Z</time>
      </trkpt>
      <trkpt lat="43.51907" lon="5.31434">
        <ele>184.23</ele>
        <time>2018-04-16T12:33:01Z</time>
      </trkpt>
      <trkpt lat="43.51903" lon="5.3143">
        <ele>184.03</ele>
        <time>2018-04-16T12:33:06Z</time>
      </trkpt>
      <trkpt lat="43.51891" lon="5.31408">
        <ele>182.31</ele>
        <time>2018-04-16T12:33:27Z</time>
      </trkpt>
      <trkpt lat="43.51888" lon="5.31406">
        <ele>181.88</ele>
        <time>2018-04-16T12:33:40Z</time>
      </trkpt>
      <trkpt lat="43.51887" lon="5.31401">
        <ele>181.85</ele>
        <time>2018-04-16T12:34:08Z</time>
      </trkpt>
      <trkpt lat="43.51886" lon="5.31402">
        <ele>181.34</ele>
        <time>2018-04-16T12:34:48Z</time>
      </trkpt>
      <trkpt lat="43.51887" lon="5.314">
        <ele>181.13</ele>
        <time>2018-04-16T12:35:16Z</time>
      </trkpt>
      <trkpt lat="43.51885" lon="5.31395">
        <ele>181.14</ele>
        <time>2018-04-16T12:35:21Z</time>
      </trkpt>
      <trkpt lat="43.51881" lon="5.31394">
        <ele>180.94</ele>
        <time>2018-04-16T12:35:25Z</time>
      </trkpt>
      <trkpt lat="43.51868" lon="5.31381">
        <ele>179.76</ele>
        <time>2018-04-16T12:35:42Z</time>
      </trkpt>
      <trkpt lat="43.51857" lon="5.31367">
        <ele>179.44</ele>
        <time>2018-04-16T12:36:00Z</time>
      </trkpt>
      <trkpt lat="43.51855" lon="5.31362">
        <ele>179.77</ele>
        <time>2018-04-16T12:36:14Z</time>
      </trkpt>
      <trkpt lat="43.51847" lon="5.31346">
        <ele>179.76</ele>
        <time>2018-04-16T12:36:30Z</time>
      </trkpt>
      <trkpt lat="43.51845" lon="5.31336">
        <ele>179.95</ele>
        <time>2018-04-16T12:36:47Z</time>
      </trkpt>
      <trkpt lat="43.51845" lon="5.31325">
        <ele>180.32</ele>
        <time>2018-04-16T12:37:09Z</time>
      </trkpt>
      <trkpt lat="43.51846" lon="5.31318">
        <ele>181.34</ele>
        <time>2018-04-16T12:37:28Z</time>
      </trkpt>
      <trkpt lat="43.5185" lon="5.31315">
        <ele>181.68</ele>
        <time>2018-04-16T12:37:53Z</time>
      </trkpt>
      <trkpt lat="43.51851" lon="5.31315">
        <ele>181.87</ele>
        <time>2018-04-16T12:38:21Z</time>
      </trkpt>
      <trkpt lat="43.51856" lon="5.31323">
        <ele>182.47</ele>
        <time>2018-04-16T12:38:49Z</time>
      </trkpt>
      <trkpt lat="43.51867" lon="5.31334">
        <ele>182.71</ele>
        <time>2018-04-16T12:39:05Z</time>
      </trkpt>
      <trkpt lat="43.51886" lon="5.31333">
        <ele>183.14</ele>
        <time>2018-04-16T12:39:25Z</time>
      </trkpt>
      <trkpt lat="43.51889" lon="5.31333">
        <ele>183.37</ele>
        <time>2018-04-16T12:39:29Z</time>
      </trkpt>
      <trkpt lat="43.51905" lon="5.31337">
        <ele>183.55</ele>
        <time>2018-04-16T12:39:47Z</time>
      </trkpt>
      <trkpt lat="43.51927" lon="5.31344">
        <ele>183.74</ele>
        <time>2018-04-16T12:40:10Z</time>
      </trkpt>
      <trkpt lat="43.51929" lon="5.31346">
        <ele>183.75</ele>
        <time>2018-04-16T12:40:33Z</time>
      </trkpt>
      <trkpt lat="43.51928" lon="5.31346">
        <ele>183.59</ele>
        <time>2018-04-16T12:41:00Z</time>
      </trkpt>
      <trkpt lat="43.51927" lon="5.31345">
        <ele>183.8</ele>
        <time>2018-04-16T12:41:36Z</time>
      </trkpt>
      <trkpt lat="43.51939" lon="5.31353">
        <ele>183.79</ele>
        <time>2018-04-16T12:41:54Z</time>
      </trkpt>
      <trkpt lat="43.51954" lon="5.31358">
        <ele>183.88</ele>
        <time>2018-04-16T12:42:12Z</time>
      </trkpt>
      <trkpt lat="43.51969" lon="5.31369">
        <ele>183.74</ele>
        <time>2018-04-16T12:42:28Z</time>
      </trkpt>
      <trkpt lat="43.5198" lon="5.31379">
        <ele>183.85</ele>
        <time>2018-04-16T12:42:41Z</time>
      </trkpt>
      <trkpt lat="43.51987" lon="5.31388">
        <ele>184.27</ele>
        <time>2018-04-16T12:42:50Z</time>
      </trkpt>
      <trkpt lat="43.51989" lon="5.31391">
        <ele>184.28</ele>
        <time>2018-04-16T12:42:53Z</time>
      </trkpt>
      <trkpt lat="43.52004" lon="5.31392">
        <ele>184.4</ele>
        <time>2018-04-16T12:43:08Z</time>
      </trkpt>
      <trkpt lat="43.52008" lon="5.31386">
        <ele>184.36</ele>
        <time>2018-04-16T12:43:13Z</time>
      </trkpt>
      <trkpt lat="43.52022" lon="5.3137">
        <ele>184.34</ele>
        <time>2018-04-16T12:43:28Z</time>
      </trkpt>
      <trkpt lat="43.52037" lon="5.31362">
        <ele>184.32</ele>
        <time>2018-04-16T12:43:42Z</time>
      </trkpt>
      <trkpt lat="43.52043" lon="5.31359">
        <ele>184.43</ele>
        <time>2018-04-16T12:43:49Z</time>
      </trkpt>
      <trkpt lat="43.52049" lon="5.31363">
        <ele>184.61</ele>
        <time>2018-04-16T12:44:03Z</time>
      </trkpt>
      <trkpt lat="43.52049" lon="5.31363">
        <ele>184.46</ele>
        <time>2018-04-16T12:44:27Z</time>
      </trkpt>
      <trkpt lat="43.52048" lon="5.31364">
        <ele>184.35</ele>
        <time>2018-04-16T12:44:46Z</time>
      </trkpt>
      <trkpt lat="43.52046" lon="5.31362">
        <ele>184.7</ele>
        <time>2018-04-16T12:45:10Z</time>
      </trkpt>
      <trkpt lat="43.52048" lon="5.31362">
        <ele>184.55</ele>
        <time>2018-04-16T12:45:32Z</time>
      </trkpt>
      <trkpt lat="43.52049" lon="5.31365">
        <ele>184.81</ele>
        <time>2018-04-16T12:45:59Z</time>
      </trkpt>
      <trkpt lat="43.52064" lon="5.31361">
        <ele>184.4</ele>
        <time>2018-04-16T12:46:20Z</time>
      </trkpt>
      <trkpt lat="43.52072" lon="5.31358">
        <ele>184.22</ele>
        <time>2018-04-16T12:46:40Z</time>
      </trkpt>
      <trkpt lat="43.52073" lon="5.31358">
        <ele>184.15</ele>
        <time>2018-04-16T12:46:41Z</time>
      </trkpt>
      <trkpt lat="43.52077" lon="5.3136">
        <ele>183.97</ele>
        <time>2018-04-16T12:46:45Z</time>
      </trkpt>
      <trkpt lat="43.52095" lon="5.31363">
        <ele>184.12</ele>
        <time>2018-04-16T12:47:03Z</time>
      </trkpt>
      <trkpt lat="43.52111" lon="5.31371">
        <ele>184.78</ele>
        <time>2018-04-16T12:47:18Z</time>
      </trkpt>
      <trkpt lat="43.52128" lon="5.31373">
        <ele>185.6</ele>
        <time>2018-04-16T12:47:34Z</time>
      </trkpt>
      <trkpt lat="43.52129" lon="5.31373">
        <ele>185.67</ele>
        <time>2018-04-16T12:47:35Z</time>
      </trkpt>
      <trkpt lat="43.52142" lon="5.31365">
        <ele>186.07</ele>
        <time>2018-04-16T12:47:46Z</time>
      </trkpt>
      <trkpt lat="43.52145" lon="5.31363">
        <ele>186.11</ele>
        <time>2018-04-16T12:47:49Z</time>
      </trkpt>
      <trkpt lat="43.52162" lon="5.31358">
        <ele>186.52</ele>
        <time>2018-04-16T12:48:03Z</time>
      </trkpt>
      <trkpt lat="43.52183" lon="5.31363">
        <ele>187.64</ele>
        <time>2018-04-16T12:48:23Z</time>
      </trkpt>
      <trkpt lat="43.522" lon="5.31355">
        <ele>188.29</ele>
        <time>2018-04-16T12:48:40Z</time>
      </trkpt>
      <trkpt lat="43.52202" lon="5.31354">
        <ele>188.35</ele>
        <time>2018-04-16T12:48:42Z</time>
      </trkpt>
      <trkpt lat="43.52206" lon="5.31353">
        <ele>188.26</ele>
        <time>2018-04-16T12:48:45Z</time>
      </trkpt>
      <trkpt lat="43.52225" lon="5.3135">
        <ele>188.2</ele>
        <time>2018-04-16T12:49:00Z</time>
      </trkpt>
      <trkpt lat="43.52243" lon="5.31345">
        <ele>188.56</ele>
        <time>2018-04-16T12:49:15Z</time>
      </trkpt>
      <trkpt lat="43.52259" lon="5.31343">
        <ele>188.61</ele>
        <time>2018-04-16T12:49:28Z</time>
      </trkpt>
      <trkpt lat="43.5226" lon="5.31343">
        <ele>188.64</ele>
        <time>2018-04-16T12:49:29Z</time>
      </trkpt>
      <trkpt lat="43.52268" lon="5.31343">
        <ele>188.34</ele>
        <time>2018-04-16T12:49:37Z</time>
      </trkpt>
      <trkpt lat="43.52292" lon="5.31347">
        <ele>188.31</ele>
        <time>2018-04-16T12:49:57Z</time>
      </trkpt>
      <trkpt lat="43.52299" lon="5.31348">
        <ele>187.78</ele>
        <time>2018-04-16T12:50:03Z</time>
      </trkpt>
      <trkpt lat="43.52317" lon="5.31352">
        <ele>186.11</ele>
        <time>2018-04-16T12:50:19Z</time>
      </trkpt>
      <trkpt lat="43.52324" lon="5.31354">
        <ele>185.27</ele>
        <time>2018-04-16T12:50:35Z</time>
      </trkpt>
      <trkpt lat="43.52337" lon="5.31352">
        <ele>184.43</ele>
        <time>2018-04-16T12:50:50Z</time>
      </trkpt>
      <trkpt lat="43.52346" lon="5.31355">
        <ele>184.32</ele>
        <time>2018-04-16T12:51:01Z</time>
      </trkpt>
      <trkpt lat="43.52351" lon="5.31357">
        <ele>184.85</ele>
        <time>2018-04-16T12:51:07Z</time>
      </trkpt>
      <trkpt lat="43.52365" lon="5.31357">
        <ele>186.04</ele>
        <time>2018-04-16T12:51:23Z</time>
      </trkpt>
      <trkpt lat="43.52381" lon="5.31357">
        <ele>187.82</ele>
        <time>2018-04-16T12:51:39Z</time>
      </trkpt>
      <trkpt lat="43.52393" lon="5.31356">
        <ele>188.98</ele>
        <time>2018-04-16T12:51:50Z</time>
      </trkpt>
      <trkpt lat="43.52407" lon="5.31356">
        <ele>190.72</ele>
        <time>2018-04-16T12:52:04Z</time>
      </trkpt>
      <trkpt lat="43.52409" lon="5.31356">
        <ele>190.93</ele>
        <time>2018-04-16T12:52:06Z</time>
      </trkpt>
      <trkpt lat="43.52415" lon="5.3136">
        <ele>191.72</ele>
        <time>2018-04-16T12:52:13Z</time>
      </trkpt>
      <trkpt lat="43.5242" lon="5.31367">
        <ele>193.29</ele>
        <time>2018-04-16T12:52:26Z</time>
      </trkpt>
      <trkpt lat="43.52417" lon="5.31364">
        <ele>193.38</ele>
        <time>2018-04-16T12:52:54Z</time>
      </trkpt>
      <trkpt lat="43.5242" lon="5.31371">
        <ele>193.08</ele>
        <time>2018-04-16T12:53:26Z</time>
      </trkpt>
      <trkpt lat="43.5243" lon="5.31379">
        <ele>194.19</ele>
        <time>2018-04-16T12:53:43Z</time>
      </trkpt>
      <trkpt lat="43.52435" lon="5.31388">
        <ele>195.41</ele>
        <time>2018-04-16T12:54:04Z</time>
      </trkpt>
      <trkpt lat="43.52435" lon="5.31392">
        <ele>195.42</ele>
        <time>2018-04-16T12:54:22Z</time>
      </trkpt>
      <trkpt lat="43.52433" lon="5.31392">
        <ele>195.27</ele>
        <time>2018-04-16T12:54:57Z</time>
      </trkpt>
      <trkpt lat="43.52434" lon="5.31391">
        <ele>194.96</ele>
        <time>2018-04-16T12:55:32Z</time>
      </trkpt>
      <trkpt lat="43.52437" lon="5.31392">
        <ele>195.01</ele>
        <time>2018-04-16T12:56:03Z</time>
      </trkpt>
      <trkpt lat="43.52437" lon="5.31392">
        <ele>194.89</ele>
        <time>2018-04-16T12:56:35Z</time>
      </trkpt>
      <trkpt lat="43.52438" lon="5.31393">
        <ele>194.96</ele>
        <time>2018-04-16T12:57:09Z</time>
      </trkpt>
      <trkpt lat="43.52437" lon="5.31392">
        <ele>195.34</ele>
        <time>2018-04-16T12:57:44Z</time>
      </trkpt>
      <trkpt lat="43.52438" lon="5.31391">
        <ele>195.42</ele>
        <time>2018-04-16T12:58:23Z</time>
      </trkpt>
      <trkpt lat="43.52438" lon="5.31388">
        <ele>195.82</ele>
        <time>2018-04-16T12:58:37Z</time>
      </trkpt>
      <trkpt lat="43.52438" lon="5.3139">
        <ele>195.16</ele>
        <time>2018-04-16T12:59:07Z</time>
      </trkpt>
      <trkpt lat="43.52437" lon="5.31393">
        <ele>196.28</ele>
        <time>2018-04-16T12:59:26Z</time>
      </trkpt>
      <trkpt lat="43.52437" lon="5.31394">
        <ele>196.28</ele>
        <time>2018-04-16T12:59:27Z</time>
      </trkpt>
      <trkpt lat="43.52438" lon="5.31394">
        <ele>196.28</ele>
        <time>2018-04-16T12:59:29Z</time>
      </trkpt>
      <trkpt lat="43.52438" lon="5.31388">
        <ele>195.08</ele>
        <time>2018-04-16T13:00:01Z</time>
      </trkpt>
      <trkpt lat="43.52439" lon="5.3139">
        <ele>195.22</ele>
        <time>2018-04-16T13:00:29Z</time>
      </trkpt>
      <trkpt lat="43.52438" lon="5.31392">
        <ele>195.39</ele>
        <time>2018-04-16T13:00:53Z</time>
      </trkpt>
      <trkpt lat="43.52438" lon="5.31388">
        <ele>195.37</ele>
        <time>2018-04-16T13:01:20Z</time>
      </trkpt>
      <trkpt lat="43.52442" lon="5.31388">
        <ele>195.47</ele>
        <time>2018-04-16T13:01:39Z</time>
      </trkpt>
      <trkpt lat="43.52464" lon="5.314">
        <ele>196.85</ele>
        <time>2018-04-16T13:02:05Z</time>
      </trkpt>
      <trkpt lat="43.52467" lon="5.314">
        <ele>197.13</ele>
        <time>2018-04-16T13:02:08Z</time>
      </trkpt>
      <trkpt lat="43.5248" lon="5.314">
        <ele>197.62</ele>
        <time>2018-04-16T13:02:23Z</time>
      </trkpt>
      <trkpt lat="43.52483" lon="5.314">
        <ele>197.62</ele>
        <time>2018-04-16T13:02:25Z</time>
      </trkpt>
      <trkpt lat="43.52486" lon="5.314">
        <ele>197.64</ele>
        <time>2018-04-16T13:02:28Z</time>
      </trkpt>
      <trkpt lat="43.52491" lon="5.31399">
        <ele>197.93</ele>
        <time>2018-04-16T13:02:33Z</time>
      </trkpt>
      <trkpt lat="43.52507" lon="5.31395">
        <ele>197.94</ele>
        <time>2018-04-16T13:02:46Z</time>
      </trkpt>
      <trkpt lat="43.52528" lon="5.3139">
        <ele>198.24</ele>
        <time>2018-04-16T13:03:03Z</time>
      </trkpt>
      <trkpt lat="43.52547" lon="5.31385">
        <ele>198.71</ele>
        <time>2018-04-16T13:03:19Z</time>
      </trkpt>
      <trkpt lat="43.52556" lon="5.31384">
        <ele>199.13</ele>
        <time>2018-04-16T13:03:29Z</time>
      </trkpt>
      <trkpt lat="43.52574" lon="5.31378">
        <ele>199.82</ele>
        <time>2018-04-16T13:03:46Z</time>
      </trkpt>
      <trkpt lat="43.52591" lon="5.31372">
        <ele>200.36</ele>
        <time>2018-04-16T13:04:01Z</time>
      </trkpt>
      <trkpt lat="43.52611" lon="5.31366">
        <ele>201.31</ele>
        <time>2018-04-16T13:04:18Z</time>
      </trkpt>
      <trkpt lat="43.52614" lon="5.31364">
        <ele>201.47</ele>
        <time>2018-04-16T13:04:22Z</time>
      </trkpt>
      <trkpt lat="43.52634" lon="5.31359">
        <ele>202.05</ele>
        <time>2018-04-16T13:04:39Z</time>
      </trkpt>
      <trkpt lat="43.5265" lon="5.31355">
        <ele>202.61</ele>
        <time>2018-04-16T13:04:52Z</time>
      </trkpt>
      <trkpt lat="43.52666" lon="5.31349">
        <ele>203.45</ele>
        <time>2018-04-16T13:05:08Z</time>
      </trkpt>
      <trkpt lat="43.52684" lon="5.31343">
        <ele>203.83</ele>
        <time>2018-04-16T13:05:24Z</time>
      </trkpt>
      <trkpt lat="43.52702" lon="5.3134">
        <ele>203.67</ele>
        <time>2018-04-16T13:05:38Z</time>
      </trkpt>
      <trkpt lat="43.52718" lon="5.31335">
        <ele>203.33</ele>
        <time>2018-04-16T13:05:51Z</time>
      </trkpt>
      <trkpt lat="43.52733" lon="5.31326">
        <ele>203.51</ele>
        <time>2018-04-16T13:06:04Z</time>
      </trkpt>
      <trkpt lat="43.52746" lon="5.31321">
        <ele>203.15</ele>
        <time>2018-04-16T13:06:15Z</time>
      </trkpt>
      <trkpt lat="43.52763" lon="5.3132">
        <ele>202.61</ele>
        <time>2018-04-16T13:06:29Z</time>
      </trkpt>
      <trkpt lat="43.52778" lon="5.31319">
        <ele>202.42</ele>
        <time>2018-04-16T13:06:43Z</time>
      </trkpt>
      <trkpt lat="43.5278" lon="5.31319">
        <ele>202.34</ele>
        <time>2018-04-16T13:06:45Z</time>
      </trkpt>
      <trkpt lat="43.52801" lon="5.31316">
        <ele>201.81</ele>
        <time>2018-04-16T13:07:01Z</time>
      </trkpt>
      <trkpt lat="43.52818" lon="5.31314">
        <ele>201.02</ele>
        <time>2018-04-16T13:07:15Z</time>
      </trkpt>
      <trkpt lat="43.52831" lon="5.31308">
        <ele>200.59</ele>
        <time>2018-04-16T13:07:27Z</time>
      </trkpt>
      <trkpt lat="43.52848" lon="5.31307">
        <ele>199.68</ele>
        <time>2018-04-16T13:07:40Z</time>
      </trkpt>
      <trkpt lat="43.52862" lon="5.31307">
        <ele>198.44</ele>
        <time>2018-04-16T13:07:53Z</time>
      </trkpt>
      <trkpt lat="43.5289" lon="5.31306">
        <ele>197.16</ele>
        <time>2018-04-16T13:08:14Z</time>
      </trkpt>
      <trkpt lat="43.52908" lon="5.31302">
        <ele>196.77</ele>
        <time>2018-04-16T13:08:29Z</time>
      </trkpt>
      <trkpt lat="43.52915" lon="5.31294">
        <ele>196.81</ele>
        <time>2018-04-16T13:08:37Z</time>
      </trkpt>
      <trkpt lat="43.52936" lon="5.3127">
        <ele>196.38</ele>
        <time>2018-04-16T13:09:02Z</time>
      </trkpt>
      <trkpt lat="43.5296" lon="5.31256">
        <ele>195.36</ele>
        <time>2018-04-16T13:09:22Z</time>
      </trkpt>
      <trkpt lat="43.52979" lon="5.31245">
        <ele>193.24</ele>
        <time>2018-04-16T13:09:44Z</time>
      </trkpt>
      <trkpt lat="43.52996" lon="5.31224">
        <ele>191</ele>
        <time>2018-04-16T13:10:04Z</time>
      </trkpt>
      <trkpt lat="43.53016" lon="5.31202">
        <ele>189.25</ele>
        <time>2018-04-16T13:10:25Z</time>
      </trkpt>
      <trkpt lat="43.53041" lon="5.31188">
        <ele>187.81</ele>
        <time>2018-04-16T13:10:49Z</time>
      </trkpt>
      <trkpt lat="43.5306" lon="5.31179">
        <ele>185.6</ele>
        <time>2018-04-16T13:11:10Z</time>
      </trkpt>
      <trkpt lat="43.53064" lon="5.31168">
        <ele>185.18</ele>
        <time>2018-04-16T13:11:18Z</time>
      </trkpt>
      <trkpt lat="43.53066" lon="5.31155">
        <ele>184.83</ele>
        <time>2018-04-16T13:11:26Z</time>
      </trkpt>
      <trkpt lat="43.53062" lon="5.31129">
        <ele>184.73</ele>
        <time>2018-04-16T13:11:42Z</time>
      </trkpt>
      <trkpt lat="43.53061" lon="5.31118">
        <ele>184.87</ele>
        <time>2018-04-16T13:11:50Z</time>
      </trkpt>
      <trkpt lat="43.53059" lon="5.31114">
        <ele>185.07</ele>
        <time>2018-04-16T13:11:53Z</time>
      </trkpt>
      <trkpt lat="43.53057" lon="5.31097">
        <ele>185.61</ele>
        <time>2018-04-16T13:12:03Z</time>
      </trkpt>
      <trkpt lat="43.53054" lon="5.3108">
        <ele>186.52</ele>
        <time>2018-04-16T13:12:15Z</time>
      </trkpt>
      <trkpt lat="43.5305" lon="5.31063">
        <ele>187.64</ele>
        <time>2018-04-16T13:12:31Z</time>
      </trkpt>
      <trkpt lat="43.53046" lon="5.31026">
        <ele>187.84</ele>
        <time>2018-04-16T13:12:53Z</time>
      </trkpt>
      <trkpt lat="43.53042" lon="5.31009">
        <ele>187.06</ele>
        <time>2018-04-16T13:13:12Z</time>
      </trkpt>
      <trkpt lat="43.53042" lon="5.3098">
        <ele>185.68</ele>
        <time>2018-04-16T13:13:34Z</time>
      </trkpt>
      <trkpt lat="43.5304" lon="5.30974">
        <ele>185.4</ele>
        <time>2018-04-16T13:13:39Z</time>
      </trkpt>
      <trkpt lat="43.5304" lon="5.3097">
        <ele>185.31</ele>
        <time>2018-04-16T13:13:41Z</time>
      </trkpt>
      <trkpt lat="43.53039" lon="5.30967">
        <ele>185.19</ele>
        <time>2018-04-16T13:13:43Z</time>
      </trkpt>
      <trkpt lat="43.53042" lon="5.30957">
        <ele>184.9</ele>
        <time>2018-04-16T13:13:48Z</time>
      </trkpt>
      <trkpt lat="43.53044" lon="5.30946">
        <ele>184.51</ele>
        <time>2018-04-16T13:13:54Z</time>
      </trkpt>
      <trkpt lat="43.53047" lon="5.30932">
        <ele>184.13</ele>
        <time>2018-04-16T13:14:09Z</time>
      </trkpt>
      <trkpt lat="43.53053" lon="5.30902">
        <ele>181.87</ele>
        <time>2018-04-16T13:14:31Z</time>
      </trkpt>
      <trkpt lat="43.53052" lon="5.30874">
        <ele>180.8</ele>
        <time>2018-04-16T13:14:49Z</time>
      </trkpt>
      <trkpt lat="43.53051" lon="5.3087">
        <ele>180.7</ele>
        <time>2018-04-16T13:14:52Z</time>
      </trkpt>
      <trkpt lat="43.53042" lon="5.30851">
        <ele>179.7</ele>
        <time>2018-04-16T13:15:05Z</time>
      </trkpt>
      <trkpt lat="43.53031" lon="5.30831">
        <ele>179.16</ele>
        <time>2018-04-16T13:15:19Z</time>
      </trkpt>
      <trkpt lat="43.53022" lon="5.30816">
        <ele>178.79</ele>
        <time>2018-04-16T13:15:32Z</time>
      </trkpt>
      <trkpt lat="43.5301" lon="5.30804">
        <ele>178.59</ele>
        <time>2018-04-16T13:15:47Z</time>
      </trkpt>
      <trkpt lat="43.53005" lon="5.30797">
        <ele>178.86</ele>
        <time>2018-04-16T13:16:04Z</time>
      </trkpt>
      <trkpt lat="43.53005" lon="5.30783">
        <ele>178.78</ele>
        <time>2018-04-16T13:16:24Z</time>
      </trkpt>
      <trkpt lat="43.52989" lon="5.30772">
        <ele>180.94</ele>
        <time>2018-04-16T13:16:44Z</time>
      </trkpt>
      <trkpt lat="43.5297" lon="5.30767">
        <ele>183.82</ele>
        <time>2018-04-16T13:17:06Z</time>
      </trkpt>
      <trkpt lat="43.52953" lon="5.30763">
        <ele>186.84</ele>
        <time>2018-04-16T13:17:25Z</time>
      </trkpt>
      <trkpt lat="43.52943" lon="5.30745">
        <ele>189.97</ele>
        <time>2018-04-16T13:17:43Z</time>
      </trkpt>
      <trkpt lat="43.52957" lon="5.30724">
        <ele>192.77</ele>
        <time>2018-04-16T13:18:05Z</time>
      </trkpt>
      <trkpt lat="43.52967" lon="5.30699">
        <ele>195.67</ele>
        <time>2018-04-16T13:18:28Z</time>
      </trkpt>
      <trkpt lat="43.52974" lon="5.30683">
        <ele>196.7</ele>
        <time>2018-04-16T13:18:49Z</time>
      </trkpt>
      <trkpt lat="43.52986" lon="5.30672">
        <ele>197.61</ele>
        <time>2018-04-16T13:19:04Z</time>
      </trkpt>
      <trkpt lat="43.52993" lon="5.30653">
        <ele>198.87</ele>
        <time>2018-04-16T13:19:20Z</time>
      </trkpt>
      <trkpt lat="43.52995" lon="5.3065">
        <ele>200.1</ele>
        <time>2018-04-16T13:19:43Z</time>
      </trkpt>
      <trkpt lat="43.52985" lon="5.30645">
        <ele>200.45</ele>
        <time>2018-04-16T13:20:03Z</time>
      </trkpt>
      <trkpt lat="43.5298" lon="5.30645">
        <ele>201.37</ele>
        <time>2018-04-16T13:20:09Z</time>
      </trkpt>
      <trkpt lat="43.52967" lon="5.30637">
        <ele>203.25</ele>
        <time>2018-04-16T13:20:23Z</time>
      </trkpt>
      <trkpt lat="43.52958" lon="5.30619">
        <ele>206.01</ele>
        <time>2018-04-16T13:20:39Z</time>
      </trkpt>
      <trkpt lat="43.52957" lon="5.306">
        <ele>208.46</ele>
        <time>2018-04-16T13:20:53Z</time>
      </trkpt>
      <trkpt lat="43.52957" lon="5.30594">
        <ele>209.23</ele>
        <time>2018-04-16T13:20:58Z</time>
      </trkpt>
      <trkpt lat="43.52958" lon="5.30579">
        <ele>210.76</ele>
        <time>2018-04-16T13:21:08Z</time>
      </trkpt>
      <trkpt lat="43.52959" lon="5.30563">
        <ele>212.36</ele>
        <time>2018-04-16T13:21:20Z</time>
      </trkpt>
      <trkpt lat="43.52959" lon="5.30538">
        <ele>214.1</ele>
        <time>2018-04-16T13:21:38Z</time>
      </trkpt>
      <trkpt lat="43.52961" lon="5.30532">
        <ele>215.39</ele>
        <time>2018-04-16T13:21:58Z</time>
      </trkpt>
      <trkpt lat="43.52961" lon="5.3053">
        <ele>215.27</ele>
        <time>2018-04-16T13:22:26Z</time>
      </trkpt>
      <trkpt lat="43.52957" lon="5.30508">
        <ele>215.91</ele>
        <time>2018-04-16T13:22:49Z</time>
      </trkpt>
      <trkpt lat="43.52957" lon="5.30505">
        <ele>215.97</ele>
        <time>2018-04-16T13:22:51Z</time>
      </trkpt>
      <trkpt lat="43.52955" lon="5.30497">
        <ele>216.49</ele>
        <time>2018-04-16T13:22:57Z</time>
      </trkpt>
      <trkpt lat="43.52955" lon="5.30492">
        <ele>216.77</ele>
        <time>2018-04-16T13:23:01Z</time>
      </trkpt>
      <trkpt lat="43.52951" lon="5.3048">
        <ele>217.18</ele>
        <time>2018-04-16T13:23:10Z</time>
      </trkpt>
      <trkpt lat="43.52945" lon="5.30461">
        <ele>218.54</ele>
        <time>2018-04-16T13:23:24Z</time>
      </trkpt>
      <trkpt lat="43.52944" lon="5.30459">
        <ele>218.72</ele>
        <time>2018-04-16T13:23:26Z</time>
      </trkpt>
      <trkpt lat="43.52938" lon="5.30437">
        <ele>220.49</ele>
        <time>2018-04-16T13:23:42Z</time>
      </trkpt>
      <trkpt lat="43.5293" lon="5.30412">
        <ele>222.05</ele>
        <time>2018-04-16T13:24:00Z</time>
      </trkpt>
      <trkpt lat="43.52924" lon="5.30393">
        <ele>222.89</ele>
        <time>2018-04-16T13:24:14Z</time>
      </trkpt>
      <trkpt lat="43.52919" lon="5.30374">
        <ele>223.84</ele>
        <time>2018-04-16T13:24:27Z</time>
      </trkpt>
      <trkpt lat="43.52919" lon="5.30372">
        <ele>223.97</ele>
        <time>2018-04-16T13:24:29Z</time>
      </trkpt>
      <trkpt lat="43.52917" lon="5.30364">
        <ele>224.34</ele>
        <time>2018-04-16T13:24:35Z</time>
      </trkpt>
      <trkpt lat="43.5292" lon="5.30347">
        <ele>225.41</ele>
        <time>2018-04-16T13:24:47Z</time>
      </trkpt>
      <trkpt lat="43.52928" lon="5.30329">
        <ele>226.39</ele>
        <time>2018-04-16T13:25:02Z</time>
      </trkpt>
      <trkpt lat="43.52938" lon="5.30314">
        <ele>227.7</ele>
        <time>2018-04-16T13:25:17Z</time>
      </trkpt>
      <trkpt lat="43.52943" lon="5.30311">
        <ele>228.56</ele>
        <time>2018-04-16T13:25:29Z</time>
      </trkpt>
      <trkpt lat="43.52962" lon="5.30309">
        <ele>228.64</ele>
        <time>2018-04-16T13:25:46Z</time>
      </trkpt>
      <trkpt lat="43.52975" lon="5.30296">
        <ele>228.21</ele>
        <time>2018-04-16T13:26:02Z</time>
      </trkpt>
      <trkpt lat="43.52978" lon="5.30288">
        <ele>228.47</ele>
        <time>2018-04-16T13:26:09Z</time>
      </trkpt>
      <trkpt lat="43.52979" lon="5.30275">
        <ele>228.75</ele>
        <time>2018-04-16T13:26:18Z</time>
      </trkpt>
      <trkpt lat="43.52986" lon="5.30251">
        <ele>230.84</ele>
        <time>2018-04-16T13:26:35Z</time>
      </trkpt>
      <trkpt lat="43.52987" lon="5.30248">
        <ele>231.16</ele>
        <time>2018-04-16T13:26:37Z</time>
      </trkpt>
      <trkpt lat="43.52993" lon="5.30239">
        <ele>231.73</ele>
        <time>2018-04-16T13:26:45Z</time>
      </trkpt>
      <trkpt lat="43.52994" lon="5.30236">
        <ele>231.83</ele>
        <time>2018-04-16T13:26:47Z</time>
      </trkpt>
      <trkpt lat="43.53006" lon="5.30217">
        <ele>232.49</ele>
        <time>2018-04-16T13:27:03Z</time>
      </trkpt>
      <trkpt lat="43.53015" lon="5.30195">
        <ele>233.62</ele>
        <time>2018-04-16T13:27:19Z</time>
      </trkpt>
      <trkpt lat="43.53017" lon="5.30191">
        <ele>233.72</ele>
        <time>2018-04-16T13:27:22Z</time>
      </trkpt>
      <trkpt lat="43.5302" lon="5.30184">
        <ele>233.98</ele>
        <time>2018-04-16T13:27:28Z</time>
      </trkpt>
      <trkpt lat="43.53034" lon="5.30171">
        <ele>234.92</ele>
        <time>2018-04-16T13:27:44Z</time>
      </trkpt>
      <trkpt lat="43.5305" lon="5.30161">
        <ele>235.21</ele>
        <time>2018-04-16T13:27:59Z</time>
      </trkpt>
      <trkpt lat="43.53067" lon="5.30151">
        <ele>235.71</ele>
        <time>2018-04-16T13:28:15Z</time>
      </trkpt>
      <trkpt lat="43.53085" lon="5.30145">
        <ele>235.75</ele>
        <time>2018-04-16T13:28:30Z</time>
      </trkpt>
      <trkpt lat="43.53102" lon="5.30139">
        <ele>235.94</ele>
        <time>2018-04-16T13:28:44Z</time>
      </trkpt>
      <trkpt lat="43.53121" lon="5.30129">
        <ele>236.16</ele>
        <time>2018-04-16T13:29:01Z</time>
      </trkpt>
      <trkpt lat="43.53139" lon="5.30122">
        <ele>236.02</ele>
        <time>2018-04-16T13:29:16Z</time>
      </trkpt>
      <trkpt lat="43.53155" lon="5.30117">
        <ele>235</ele>
        <time>2018-04-16T13:29:30Z</time>
      </trkpt>
      <trkpt lat="43.53175" lon="5.30108">
        <ele>232.95</ele>
        <time>2018-04-16T13:29:49Z</time>
      </trkpt>
      <trkpt lat="43.53181" lon="5.30105">
        <ele>232.39</ele>
        <time>2018-04-16T13:29:55Z</time>
      </trkpt>
      <trkpt lat="43.53183" lon="5.30105">
        <ele>232.16</ele>
        <time>2018-04-16T13:29:57Z</time>
      </trkpt>
      <trkpt lat="43.53197" lon="5.301">
        <ele>231.05</ele>
        <time>2018-04-16T13:30:09Z</time>
      </trkpt>
      <trkpt lat="43.532" lon="5.30098">
        <ele>230.77</ele>
        <time>2018-04-16T13:30:12Z</time>
      </trkpt>
      <trkpt lat="43.53215" lon="5.30092">
        <ele>229.43</ele>
        <time>2018-04-16T13:30:25Z</time>
      </trkpt>
      <trkpt lat="43.53236" lon="5.3008">
        <ele>227.67</ele>
        <time>2018-04-16T13:30:41Z</time>
      </trkpt>
      <trkpt lat="43.5325" lon="5.30072">
        <ele>228.52</ele>
        <time>2018-04-16T13:30:56Z</time>
      </trkpt>
      <trkpt lat="43.53264" lon="5.30063">
        <ele>231.68</ele>
        <time>2018-04-16T13:31:13Z</time>
      </trkpt>
      <trkpt lat="43.53278" lon="5.30057">
        <ele>233.91</ele>
        <time>2018-04-16T13:31:28Z</time>
      </trkpt>
      <trkpt lat="43.53293" lon="5.30051">
        <ele>235.61</ele>
        <time>2018-04-16T13:31:43Z</time>
      </trkpt>
      <trkpt lat="43.53297" lon="5.30049">
        <ele>236.08</ele>
        <time>2018-04-16T13:31:46Z</time>
      </trkpt>
      <trkpt lat="43.53312" lon="5.30035">
        <ele>237.68</ele>
        <time>2018-04-16T13:32:03Z</time>
      </trkpt>
      <trkpt lat="43.53325" lon="5.30023">
        <ele>238.52</ele>
        <time>2018-04-16T13:32:17Z</time>
      </trkpt>
      <trkpt lat="43.53341" lon="5.30009">
        <ele>239.73</ele>
        <time>2018-04-16T13:32:33Z</time>
      </trkpt>
      <trkpt lat="43.53356" lon="5.29996">
        <ele>240.35</ele>
        <time>2018-04-16T13:32:48Z</time>
      </trkpt>
      <trkpt lat="43.5337" lon="5.29983">
        <ele>240.69</ele>
        <time>2018-04-16T13:33:02Z</time>
      </trkpt>
      <trkpt lat="43.53387" lon="5.29965">
        <ele>240.72</ele>
        <time>2018-04-16T13:33:19Z</time>
      </trkpt>
      <trkpt lat="43.53388" lon="5.29964">
        <ele>240.7</ele>
        <time>2018-04-16T13:33:20Z</time>
      </trkpt>
      <trkpt lat="43.53393" lon="5.29962">
        <ele>240.57</ele>
        <time>2018-04-16T13:33:24Z</time>
      </trkpt>
      <trkpt lat="43.53409" lon="5.29949">
        <ele>240.05</ele>
        <time>2018-04-16T13:33:38Z</time>
      </trkpt>
      <trkpt lat="43.53424" lon="5.29936">
        <ele>239.46</ele>
        <time>2018-04-16T13:33:54Z</time>
      </trkpt>
      <trkpt lat="43.53429" lon="5.29933">
        <ele>239.54</ele>
        <time>2018-04-16T13:33:59Z</time>
      </trkpt>
      <trkpt lat="43.53443" lon="5.29924">
        <ele>240.3</ele>
        <time>2018-04-16T13:34:13Z</time>
      </trkpt>
      <trkpt lat="43.53458" lon="5.29913">
        <ele>240.33</ele>
        <time>2018-04-16T13:34:29Z</time>
      </trkpt>
      <trkpt lat="43.53469" lon="5.2991">
        <ele>240.48</ele>
        <time>2018-04-16T13:34:47Z</time>
      </trkpt>
      <trkpt lat="43.53474" lon="5.2991">
        <ele>240.85</ele>
        <time>2018-04-16T13:35:12Z</time>
      </trkpt>
      <trkpt lat="43.53474" lon="5.29908">
        <ele>238.77</ele>
        <time>2018-04-16T13:35:25Z</time>
      </trkpt>
    </trkseg>
  </trk>
</gpx>